Portsmouth, Virginia - KPWR: 24-hour Summary Portsmouth Weather Records Service - Portsmouth, Virginia



LOCAL CLIMATOLOGICAL DATA: This Month's Data
[updated each morning between 7AM and 9AM]
Station: Portsmouth, Virginia - KPWR Latitude: 36° 48' 04" N Longitude: 76° 19' 37" W Elevation (ground): 13 ft. Time Zone: Eastern

BE SURE TO RELOAD/REFRESH THIS SCREEN FOR DAILY UPDATES BY RIGHT-CLICKING THE BACKGROUND The data in this frame and listed below are final adjusted site data for the time period.


-----------------------------------------------------------------------------------------------------------------------------------------------------------------------------------
SATURDAY		Temp	Hi	Low	Out	Dew	Wind	Wind	Wind	Hi	Hi	Wind	Heat	THW			Rain	Heat	Cool	In 	In	In 	In 	Wind	Wind	ISS 	Arc.
Date		Time	Out	Temp	Temp	Hum	Pt.	Speed	Dir	Run	Speed	Dir	Chill	Index	Index	Bar  	Rain	Rate	D-D 	D-D 	Temp	Hum	Dew	Heat	Samp	Tx 	Recept	Int.
06/01/19	1:00 a	67.0	68.9	66.9	98	66.4	7.0	ENE	7.00	17.0	NE	67.0	68.7	68.7	29.735	0.16	0.35	0.000	0.083	83.4	35	52.9	82.4	1404	1	100.0	60
06/01/19	2:00 a	67.1	67.4	67.0	98	66.5	6.0	NE	6.00	16.0	NE	67.1	68.8	68.8	29.724	0.00	0.00	0.000	0.087	83.2	36	53.5	82.3	1405	1	100.0	60
06/01/19	3:00 a	66.4	67.1	66.4	98	65.8	4.0	SSW	4.00	10.0	SW	66.4	68.0	68.0	29.728	0.00	0.00	0.000	0.058	83.0	36	53.3	82.0	1405	1	100.0	60
06/01/19	4:00 a	65.8	66.4	65.8	98	65.2	4.0	NW	4.00	6.0	NW	65.8	67.2	67.2	29.738	0.00	0.00	0.000	0.033	82.7	37	53.8	81.8	1405	1	100.0	60
06/01/19	5:00 a	66.1	66.2	65.7	99	65.8	5.0	WNW	5.00	14.0	WNW	66.1	67.6	67.6	29.766	0.00	0.00	0.000	0.046	82.3	37	53.4	81.3	1405	1	100.0	60
06/01/19	6:00 a	66.8	66.8	66.1	100	66.8	5.0	NW	5.00	13.0	N	66.8	68.5	68.5	29.786	0.00	0.00	0.000	0.075	82.0	38	53.9	81.1	1404	1	100.0	60
06/01/19	7:00 a	67.4	67.4	66.8	100	67.4	4.0	NNW	4.00	7.0	NNW	67.4	69.3	69.3	29.788	0.01	0.00	0.000	0.100	80.5	37	51.8	79.2	1405	1	100.0	60
06/01/19	8:00 a	68.4	68.4	67.4	100	68.4	5.0	NW	5.00	12.0	W	68.4	70.8	70.8	29.810	0.00	0.00	0.000	0.142	80.9	38	52.9	79.7	1406	1	100.0	60
06/01/19	9:00 a	65.4	68.5	65.4	98	64.8	15.0	NE	15.00	29.0	NE	60.7	66.7	62.0	29.851	0.19	1.81	0.000	0.017	80.1	37	51.5	78.8	1405	1	100.0	60
06/01/19	10:00 a	64.2	65.4	64.2	99	63.9	6.0	NNW	6.00	13.0	ENE	64.2	65.3	65.3	29.849	0.15	0.34	0.033	0.000	80.4	41	54.5	79.5	1404	1	100.0	60
06/01/19	11:00 a	65.1	65.1	64.1	100	65.1	5.0	NW	5.00	11.0	NNW	65.1	66.4	66.4	29.820	0.09	0.27	0.000	0.004	80.3	42	55.1	79.5	1405	1	100.0	60
06/01/19	12:00 p	67.8	67.9	65.1	100	67.8	4.0	WSW	4.00	11.0	NNW	67.8	69.8	69.8	29.812	0.00	0.00	0.000	0.117	81.0	42	55.7	80.2	1405	1	100.0	60
06/01/19	1:00 p	68.3	68.8	67.8	95	66.8	7.0	NW	7.00	16.0	NW	68.3	70.3	70.3	29.807	0.01	0.00	0.000	0.138	81.5	38	53.4	80.4	1405	1	100.0	60
06/01/19	2:00 p	72.1	72.1	68.3	86	67.7	6.0	NNW	6.00	14.0	ENE	72.1	74.0	74.0	29.802	0.00	0.00	0.000	0.296	83.8	39	56.2	83.8	1405	1	100.0	60
06/01/19	3:00 p	77.1	77.1	72.1	72	67.4	6.0	NNW	6.00	15.0	W	77.1	79.2	79.2	29.792	0.00	0.00	0.000	0.504	86.0	37	56.7	85.7	1405	1	100.0	60
06/01/19	4:00 p	78.4	78.4	77.1	68	67.0	6.0	NNW	6.00	15.0	NNW	78.4	80.3	80.3	29.783	0.00	0.00	0.000	0.558	86.4	38	57.8	86.3	1405	1	100.0	60
06/01/19	5:00 p	79.8	79.8	78.4	59	64.2	6.0	ENE	6.00	14.0	NNW	79.8	80.9	80.9	29.786	0.00	0.00	0.000	0.617	88.3	39	60.2	88.4	1405	1	100.0	60
06/01/19	6:00 p	78.8	80.2	78.8	58	62.8	6.0	NE	6.00	17.0	NE	78.8	79.7	79.7	29.791	0.00	0.00	0.000	0.575	87.3	34	55.5	86.2	1405	1	100.0	60
06/01/19	7:00 p	77.5	78.9	77.5	69	66.5	6.0	NE	6.00	15.0	N	77.5	79.3	79.3	29.786	0.00	0.00	0.000	0.521	88.4	36	58.1	87.7	1405	1	100.0	60
06/01/19	8:00 p	76.8	77.6	76.8	74	67.9	0.0	NE	0.00	6.0	ENE	76.8	79.2	79.2	29.789	0.00	0.00	0.000	0.492	85.0	34	53.5	84.0	1405	1	100.0	60
06/01/19	9:00 p	74.0	76.8	74.0	80	67.4	0.0	NNE	0.00	5.0	NNE	74.0	76.0	76.0	29.804	0.00	0.00	0.000	0.375	85.4	35	54.6	84.6	1404	1	100.0	60
06/01/19	10:00 p	71.1	74.0	71.1	85	66.4	0.0	SE	0.00	6.0	SE	71.1	72.9	72.9	29.819	0.00	0.00	0.000	0.254	84.1	34	52.7	83.2	1405	1	100.0	60
06/01/19	11:00 p	69.2	71.1	69.2	89	65.8	0.0	SE	0.00	5.0	SE	69.2	71.1	71.1	29.822	0.00	0.00	0.000	0.175	82.8	34	51.6	81.4	1405	1	100.0	60
06/02/19	12:00 a	67.9	69.2	67.9	92	65.5	0.0	SE	0.00	5.0	SE	67.9	69.7	69.7	29.823	0.00	0.00	0.000	0.121	82.6	35	52.2	81.4	1406	1	100.0	60
SUNDAY			Temp	Hi	Low	Out	Dew	Wind	Wind	Wind	Hi	Hi	Wind	Heat	THW			Rain	Heat	Cool	In 	In	In 	In 	Wind	Wind	ISS 	Arc.
Date		Time	Out	Temp	Temp	Hum	Pt.	Speed	Dir	Run	Speed	Dir	Chill	Index	Index	Bar  	Rain	Rate	D-D 	D-D 	Temp	Hum	Dew	Heat	Samp	Tx 	Recept	Int.
06/02/19	1:00 a	66.8	67.9	66.8	93	64.7	0.0	SE	0.00	5.0	SE	66.8	68.3	68.3	29.821	0.00	0.00	0.000	0.075	82.2	36	52.6	81.1	1403	1	100.0	60
06/02/19	2:00 a	66.0	66.8	66.0	94	64.2	4.0	SE	4.00	6.0	SE	66.0	67.4	67.4	29.807	0.00	0.00	0.000	0.042	81.8	37	53.0	80.7	1405	1	100.0	60
06/02/19	3:00 a	65.3	66.0	65.3	95	63.8	4.0	SSW	4.00	7.0	SSW	65.3	66.6	66.6	29.777	0.00	0.00	0.000	0.013	81.4	37	52.6	80.2	1405	1	100.0	60
06/02/19	4:00 a	64.8	65.3	64.8	96	63.6	4.0	SSW	4.00	7.0	SSW	64.8	66.0	66.0	29.777	0.00	0.00	0.008	0.000	81.0	38	53.0	79.8	1405	1	100.0	60
06/02/19	5:00 a	64.5	64.8	64.4	97	63.6	4.0	SW	4.00	11.0	SW	64.5	65.6	65.6	29.781	0.00	0.00	0.021	0.000	80.5	39	53.3	79.4	1405	1	100.0	60
06/02/19	6:00 a	63.7	64.4	63.7	96	62.5	4.0	SW	4.00	7.0	SW	63.7	64.7	64.7	29.783	0.00	0.00	0.054	0.000	80.2	39	53.0	79.1	1405	1	100.0	60
06/02/19	7:00 a	64.6	64.6	63.6	98	64.0	4.0	SW	4.00	10.0	SW	64.6	65.8	65.8	29.799	0.00	0.00	0.017	0.000	80.3	39	53.1	79.2	1405	1	100.0	60
06/02/19	8:00 a	69.6	69.6	64.6	96	68.4	5.0	SW	5.00	12.0	SW	69.6	72.2	72.2	29.806	0.00	0.00	0.000	0.192	80.6	40	54.0	79.6	1404	1	100.0	60
06/02/19	9:00 a	75.4	75.4	69.7	83	69.9	5.0	SW	5.00	15.0	SSW	75.4	78.3	78.3	29.817	0.00	0.00	0.000	0.433	79.5	37	50.9	78.3	1405	1	100.0	60
06/02/19	10:00 a	79.7	79.7	75.4	74	70.7	6.0	SW	6.00	15.0	SW	79.7	83.0	83.0	29.819	0.00	0.00	0.000	0.612	82.2	38	54.1	81.3	1405	1	100.0	60
06/02/19	11:00 a	82.8	82.8	79.7	70	72.0	6.0	SW	6.00	15.0	SW	82.8	88.0	88.0	29.812	0.00	0.00	0.000	0.742	82.3	36	52.7	81.2	1405	1	100.0	60
06/02/19	12:00 p	84.9	84.9	82.8	66	72.3	6.0	SSW	6.00	16.0	WSW	84.9	91.3	91.3	29.814	0.00	0.00	0.000	0.829	85.5	38	57.0	85.3	1405	1	100.0	60
06/02/19	1:00 p	86.7	86.7	84.8	59	70.7	7.0	SSW	7.00	17.0	S	86.7	92.6	92.6	29.791	0.00	0.00	0.000	0.904	86.8	33	54.2	85.6	1405	1	100.0	60
06/02/19	2:00 p	87.9	87.9	86.7	58	71.3	6.0	SW	6.00	19.0	SW	87.9	94.1	94.1	29.767	0.00	0.00	0.000	0.954	88.5	39	60.4	88.8	1405	1	100.0	60
06/02/19	3:00 p	86.3	88.2	86.3	67	74.0	6.0	SSW	6.00	22.0	SSW	86.3	94.8	94.8	29.757	0.01	0.00	0.000	0.888	89.0	32	55.3	87.5	1405	1	100.0	60
06/02/19	4:00 p	76.9	86.2	76.9	92	74.4	4.0	SSE	4.00	11.0	SW	76.9	81.1	81.1	29.743	0.12	0.52	0.000	0.496	89.1	35	57.9	88.5	1405	1	100.0	60
06/02/19	5:00 p	77.8	78.1	76.9	89	74.3	5.0	SW	5.00	15.0	WSW	77.8	82.3	82.3	29.721	0.00	0.00	0.000	0.533	90.4	35	59.0	90.4	1405	1	100.0	60
06/02/19	6:00 p	80.0	80.0	77.8	77	72.1	6.0	SSW	6.00	16.0	SW	80.0	84.0	84.0	29.722	0.00	0.00	0.000	0.625	89.0	34	57.0	88.0	1405	1	100.0	60
06/02/19	7:00 p	81.1	81.2	80.0	73	71.6	5.0	SSW	5.00	14.0	SSE	81.1	85.2	85.2	29.733	0.00	0.00	0.000	0.671	90.1	36	59.5	90.3	1405	1	100.0	60
06/02/19	8:00 p	79.1	81.1	79.1	71	68.9	6.0	S	6.00	16.0	SSE	79.1	81.6	81.6	29.749	0.00	0.00	0.000	0.587	86.5	31	52.3	85.0	1405	1	100.0	60
06/02/19	9:00 p	76.6	79.1	76.6	73	67.3	6.0	S	6.00	17.0	S	76.6	78.8	78.8	29.768	0.00	0.00	0.000	0.483	87.3	35	56.3	86.4	1405	1	100.0	60
06/02/19	10:00 p	74.8	76.6	74.8	77	67.1	5.0	S	5.00	13.0	SSE	74.8	77.0	77.0	29.780	0.00	0.00	0.000	0.408	85.3	32	52.1	83.9	1405	1	100.0	60
06/02/19	11:00 p	73.8	74.8	73.8	85	69.0	5.0	S	5.00	13.0	SSE	73.8	76.0	76.0	29.781	0.01	0.00	0.000	0.367	85.6	35	54.8	84.9	1404	1	100.0	60
06/03/19	12:00 a	71.3	73.8	71.3	91	68.5	5.0	SSW	5.00	14.0	WSW	71.3	73.6	73.6	29.777	0.00	0.00	0.000	0.263	84.5	35	53.8	83.8	1405	1	100.0	60
MONDAY			Temp	Hi	Low	Out	Dew	Wind	Wind	Wind	Hi	Hi	Wind	Heat	THW			Rain	Heat	Cool	In 	In	In 	In 	Wind	Wind	ISS 	Arc.
Date		Time	Out	Temp	Temp	Hum	Pt.	Speed	Dir	Run	Speed	Dir	Chill	Index	Index	Bar  	Rain	Rate	D-D 	D-D 	Temp	Hum	Dew	Heat	Samp	Tx 	Recept	Int.
06/03/19	1:00 a	71.5	71.5	71.1	92	69.1	6.0	SSW	6.00	15.0	SW	71.5	73.9	73.9	29.768	0.00	0.00	0.000	0.271	83.4	35	52.9	82.4	1403	1	100.0	60
06/03/19	2:00 a	71.8	71.8	71.5	92	69.3	6.0	SW	6.00	17.0	SW	71.8	74.2	74.2	29.769	0.00	0.00	0.000	0.283	83.7	36	53.9	83.0	1405	1	100.0	60
06/03/19	3:00 a	72.4	72.4	71.8	83	66.9	7.0	NW	7.00	17.0	NW	72.4	74.2	74.2	29.791	0.00	0.00	0.000	0.308	83.7	37	54.7	83.2	1405	1	100.0	60
06/03/19	4:00 a	70.8	72.4	70.8	85	66.1	10.0	NW	10.00	19.0	NNW	68.7	72.5	70.4	29.791	0.00	0.00	0.000	0.242	83.5	37	54.5	82.9	1405	1	100.0	60
06/03/19	5:00 a	69.3	70.8	69.2	91	66.6	6.0	NW	6.00	14.0	NW	69.3	71.4	71.4	29.799	0.00	0.00	0.000	0.179	83.2	38	55.0	82.7	1405	1	100.0	60
06/03/19	6:00 a	68.7	69.3	68.7	91	66.0	6.0	NW	6.00	15.0	NNW	68.7	70.7	70.7	29.828	0.00	0.00	0.000	0.154	83.2	38	55.0	82.7	1405	1	100.0	60
06/03/19	7:00 a	68.5	68.7	68.5	91	65.8	7.0	NNW	7.00	16.0	NNW	68.5	70.4	70.4	29.871	0.00	0.00	0.000	0.146	81.5	37	52.7	80.3	1405	1	100.0	60
06/03/19	8:00 a	69.8	69.8	68.4	90	66.7	7.0	NNW	7.00	18.0	N	69.8	71.8	71.8	29.898	0.00	0.00	0.000	0.200	81.9	45	58.5	81.8	1404	1	100.0	60
06/03/19	9:00 a	71.8	71.8	69.8	81	65.7	11.0	NE	11.00	21.0	ENE	69.2	73.3	70.7	29.906	0.00	0.00	0.000	0.283	82.0	46	59.2	82.0	1405	1	100.0	60
06/03/19	10:00 a	72.9	73.3	71.8	73	63.7	13.0	ENE	13.00	23.0	NE	69.6	74.2	70.9	29.933	0.00	0.00	0.000	0.329	82.7	46	59.8	83.2	1405	1	100.0	60
06/03/19	11:00 a	73.2	73.2	72.7	71	63.2	12.0	NE	12.00	21.0	NE	70.2	74.5	71.5	29.947	0.00	0.00	0.000	0.342	82.5	42	57.1	82.3	1405	1	100.0	60
06/03/19	12:00 p	74.0	74.3	73.2	58	58.3	12.0	NE	12.00	23.0	NE	71.1	74.5	71.6	29.958	0.00	0.00	0.000	0.375	84.1	41	57.9	84.5	1404	1	100.0	60
06/03/19	1:00 p	74.9	74.9	74.0	52	56.1	11.0	NE	11.00	18.0	NNW	72.5	75.1	72.7	29.961	0.00	0.00	0.000	0.413	84.1	37	55.0	83.8	1405	1	100.0	60
06/03/19	2:00 p	75.5	75.5	74.9	53	57.2	10.0	NE	10.00	20.0	NE	73.6	75.8	73.9	29.966	0.00	0.00	0.000	0.438	85.7	35	54.9	85.0	1405	1	100.0	60
06/03/19	3:00 p	75.9	75.9	75.5	49	55.4	10.0	ENE	10.00	16.0	NE	74.0	75.8	73.9	29.961	0.00	0.00	0.000	0.454	85.9	35	55.1	85.2	1405	1	100.0	60
06/03/19	4:00 p	76.9	76.9	75.9	46	54.5	10.0	NW	10.00	18.0	NNW	75.0	76.5	74.6	29.952	0.00	0.00	0.000	0.496	87.7	33	55.0	86.2	1405	1	100.0	60
06/03/19	5:00 p	77.8	77.8	76.8	44	54.1	10.0	NNW	10.00	20.0	NW	76.0	77.3	75.5	29.962	0.00	0.00	0.000	0.533	87.3	32	53.8	85.8	1405	1	100.0	60
06/03/19	6:00 p	78.0	78.3	77.8	45	54.9	7.0	NW	7.00	19.0	NNW	78.0	77.6	77.6	29.958	0.00	0.00	0.000	0.542	88.4	32	54.8	86.7	1405	1	100.0	60
06/03/19	7:00 p	77.4	78.0	77.3	46	55.0	11.0	NNW	11.00	17.0	N	75.1	77.0	74.7	29.962	0.00	0.00	0.000	0.517	87.1	31	52.8	85.5	1405	1	100.0	60
06/03/19	8:00 p	76.0	77.4	76.0	51	56.6	6.0	NNW	6.00	15.0	WNW	76.0	76.1	76.1	29.994	0.00	0.00	0.000	0.458	86.6	33	54.1	85.4	1405	1	100.0	60
06/03/19	9:00 p	72.5	76.0	72.5	56	55.9	6.0	NE	6.00	15.0	NE	72.5	72.3	72.3	30.014	0.00	0.00	0.000	0.313	84.8	33	52.5	83.6	1405	1	100.0	60
06/03/19	10:00 p	71.0	72.5	71.0	55	54.0	5.0	NE	5.00	11.0	NE	71.0	70.0	70.0	30.047	0.00	0.00	0.000	0.250	83.8	34	52.4	82.8	1405	1	100.0	60
06/03/19	11:00 p	70.6	71.0	70.6	51	51.6	5.0	NE	5.00	14.0	NE	70.6	69.2	69.2	30.061	0.00	0.00	0.000	0.233	83.1	34	51.8	81.8	1405	1	100.0	60
06/04/19	12:00 a	69.5	70.6	69.5	46	47.8	5.0	NNE	5.00	10.0	NW	69.5	67.6	67.6	30.071	0.00	0.00	0.000	0.188	82.4	34	51.2	81.0	1405	1	100.0	60
TUESDAY			Temp	Hi	Low	Out	Dew	Wind	Wind	Wind	Hi	Hi	Wind	Heat	THW			Rain	Heat	Cool	In 	In	In 	In 	Wind	Wind	ISS 	Arc.
Date		Time	Out	Temp	Temp	Hum	Pt.	Speed	Dir	Run	Speed	Dir	Chill	Index	Index	Bar  	Rain	Rate	D-D 	D-D 	Temp	Hum	Dew	Heat	Samp	Tx 	Recept	Int.
06/04/19	1:00 a	68.4	69.5	68.4	52	50.1	4.0	NE	4.00	10.0	NE	68.4	67.2	67.2	30.069	0.00	0.00	0.000	0.142	82.0	35	51.6	80.7	1403	1	100.0	60
06/04/19	2:00 a	66.0	68.4	66.0	59	51.3	4.0	NE	4.00	10.0	NE	66.0	65.2	65.2	30.072	0.00	0.00	0.000	0.042	80.4	35	50.2	78.9	1405	1	100.0	60
06/04/19	3:00 a	62.6	66.0	62.6	67	51.5	0.0	NE	0.00	5.0	NE	62.6	62.1	62.1	30.078	0.00	0.00	0.100	0.000	80.1	36	50.7	78.7	1405	1	100.0	60
06/04/19	4:00 a	60.3	62.6	60.3	75	52.3	4.0	NE	4.00	6.0	NE	60.3	59.9	59.9	30.092	0.00	0.00	0.196	0.000	79.5	36	50.2	78.2	1405	1	100.0	60
06/04/19	5:00 a	59.0	60.3	59.0	78	52.1	0.0	NE	0.00	5.0	NE	59.0	58.7	58.7	30.110	0.00	0.00	0.250	0.000	79.4	37	50.9	78.3	1405	1	100.0	60
06/04/19	6:00 a	57.7	59.0	57.7	82	52.2	0.0	NE	0.00	5.0	NE	57.7	57.5	57.5	30.132	0.00	0.00	0.304	0.000	79.3	37	50.8	78.2	1405	1	100.0	60
06/04/19	7:00 a	59.7	59.7	57.4	89	56.5	0.0	ENE	0.00	6.0	ENE	59.7	59.9	59.9	30.162	0.00	0.00	0.221	0.000	78.6	39	51.6	77.7	1405	1	100.0	60
06/04/19	8:00 a	69.8	69.8	59.7	48	49.2	4.0	ENE	4.00	15.0	NE	69.8	68.0	68.0	30.181	0.00	0.00	0.000	0.200	78.9	39	51.8	78.0	1405	1	100.0	60
06/04/19	9:00 a	73.0	73.0	69.8	39	46.6	7.0	NE	7.00	16.0	NW	73.0	71.6	71.6	30.179	0.00	0.00	0.000	0.333	79.8	37	51.2	78.6	1405	1	100.0	60
06/04/19	10:00 a	73.2	73.7	73.0	43	49.4	7.0	NNW	7.00	17.0	NNW	73.2	72.2	72.2	30.182	0.00	0.00	0.000	0.342	81.0	36	51.5	79.6	1405	1	100.0	60
06/04/19	11:00 a	73.6	73.6	72.9	39	47.1	7.0	NNW	7.00	15.0	ENE	73.6	72.5	72.5	30.184	0.00	0.00	0.000	0.358	82.6	34	51.4	81.2	1405	1	100.0	60
06/04/19	12:00 p	74.7	74.7	73.6	40	48.8	6.0	ENE	6.00	15.0	N	74.7	73.9	73.9	30.172	0.00	0.00	0.000	0.404	82.7	34	51.5	81.3	1405	1	100.0	60
06/04/19	1:00 p	75.9	75.9	74.7	42	51.2	5.0	NE	5.00	14.0	WNW	75.9	75.2	75.2	30.155	0.00	0.00	0.000	0.454	84.6	35	53.9	83.8	1405	1	100.0	60
06/04/19	2:00 p	78.0	78.0	76.0	43	53.7	6.0	SW	6.00	15.0	WSW	78.0	77.4	77.4	30.139	0.00	0.00	0.000	0.542	85.2	31	51.1	83.6	1404	1	100.0	60
06/04/19	3:00 p	78.7	78.7	78.0	39	51.7	6.0	SW	6.00	15.0	W	78.7	77.8	77.8	30.123	0.00	0.00	0.000	0.571	87.0	34	55.2	86.0	1405	1	100.0	60
06/04/19	4:00 p	79.5	79.5	78.7	39	52.4	6.0	WNW	6.00	19.0	WNW	79.5	78.5	78.5	30.116	0.00	0.00	0.000	0.604	87.3	33	54.7	86.0	1405	1	100.0	60
06/04/19	5:00 p	81.1	81.1	79.5	36	51.6	7.0	WNW	7.00	16.0	W	81.1	79.7	79.7	30.099	0.00	0.00	0.000	0.671	88.5	33	55.7	87.1	1405	1	100.0	60
06/04/19	6:00 p	82.3	82.3	81.2	36	52.7	5.0	SW	5.00	16.0	SW	82.3	81.2	81.2	30.075	0.00	0.00	0.000	0.721	90.1	32	56.3	89.5	1405	1	100.0	60
06/04/19	7:00 p	81.3	82.3	81.3	45	57.9	6.0	S	6.00	16.0	SSE	81.3	81.0	81.0	30.073	0.00	0.00	0.000	0.679	87.9	32	54.4	86.1	1405	1	100.0	60
06/04/19	8:00 p	77.9	81.3	77.9	50	57.8	7.0	SSE	7.00	17.0	S	77.9	77.9	77.9	30.076	0.00	0.00	0.000	0.538	88.2	33	55.5	86.6	1405	1	100.0	60
06/04/19	9:00 p	73.0	77.9	73.0	60	58.3	6.0	SSE	6.00	16.0	SE	73.0	73.4	73.4	30.074	0.00	0.00	0.000	0.333	85.2	33	52.8	84.0	1405	1	100.0	60
06/04/19	10:00 p	70.0	73.0	70.0	67	58.5	6.0	SSE	6.00	12.0	S	70.0	69.9	69.9	30.083	0.00	0.00	0.000	0.208	85.3	33	52.9	84.1	1405	1	100.0	60
06/04/19	11:00 p	68.3	70.0	68.3	71	58.5	6.0	SSE	6.00	12.0	S	68.3	68.9	68.9	30.080	0.00	0.00	0.000	0.138	84.8	34	53.3	83.8	1405	1	100.0	60
06/05/19	12:00 a	67.4	68.3	67.4	74	58.8	6.0	SSE	6.00	15.0	SSE	67.4	68.1	68.1	30.078	0.00	0.00	0.000	0.100	82.7	33	50.7	81.2	1405	1	100.0	60
WEDNESDAY		Temp	Hi	Low	Out	Dew	Wind	Wind	Wind	Hi	Hi	Wind	Heat	THW			Rain	Heat	Cool	In 	In	In 	In 	Wind	Wind	ISS 	Arc.
Date		Time	Out	Temp	Temp	Hum	Pt.	Speed	Dir	Run	Speed	Dir	Chill	Index	Index	Bar  	Rain	Rate	D-D 	D-D 	Temp	Hum	Dew	Heat	Samp	Tx 	Recept	Int.
06/05/19	1:00 a	66.9	67.4	66.9	76	59.1	5.0	S	5.00	12.0	S	66.9	67.7	67.7	30.074	0.00	0.00	0.000	0.079	82.5	34	51.3	81.1	1404	1	100.0	60
06/05/19	2:00 a	66.3	66.9	66.3	79	59.6	5.0	S	5.00	10.0	S	66.3	67.2	67.2	30.071	0.00	0.00	0.000	0.054	82.4	35	52.0	81.1	1404	1	100.0	60
06/05/19	3:00 a	65.9	66.3	65.8	84	60.9	4.0	SSE	4.00	10.0	SSE	65.9	66.9	66.9	30.043	0.00	0.00	0.000	0.038	82.0	35	51.6	80.7	1405	1	100.0	60
06/05/19	4:00 a	66.6	66.6	65.9	86	62.3	5.0	SSW	5.00	13.0	SSE	66.6	67.8	67.8	30.045	0.00	0.00	0.000	0.067	81.7	36	52.1	80.5	1405	1	100.0	60
06/05/19	5:00 a	66.5	66.7	66.5	88	62.8	4.0	SW	4.00	10.0	S	66.5	67.8	67.8	30.042	0.00	0.00	0.000	0.063	81.4	36	51.9	80.1	1405	1	100.0	60
06/05/19	6:00 a	66.4	66.5	66.4	90	63.4	4.0	SSW	4.00	12.0	WSW	66.4	67.8	67.8	30.042	0.00	0.00	0.000	0.058	81.4	37	52.6	80.2	1405	1	100.0	60
06/05/19	7:00 a	67.7	67.7	66.4	92	65.3	5.0	SSW	5.00	11.0	SW	67.7	69.4	69.4	30.047	0.00	0.00	0.000	0.112	81.5	37	52.7	80.3	1405	1	100.0	60
06/05/19	8:00 a	71.7	71.7	67.7	88	68.0	6.0	SSW	6.00	14.0	SW	71.7	73.7	73.7	30.044	0.00	0.00	0.000	0.279	81.8	38	53.7	80.8	1405	1	100.0	60
06/05/19	9:00 a	75.6	75.6	71.7	85	70.8	6.0	SW	6.00	17.0	WSW	75.6	78.7	78.7	30.036	0.00	0.00	0.000	0.442	81.2	36	51.7	79.8	1405	1	100.0	60
06/05/19	10:00 a	80.2	80.2	75.6	77	72.3	10.0	SSW	10.00	23.0	SSE	78.6	84.3	82.7	30.025	0.00	0.00	0.000	0.633	83.3	38	55.0	82.8	1405	1	100.0	60
06/05/19	11:00 a	82.9	82.9	80.2	73	73.4	10.0	SSW	10.00	21.0	SSE	81.7	89.2	88.0	30.008	0.00	0.00	0.000	0.746	82.7	37	53.8	81.8	1405	1	100.0	60
06/05/19	12:00 p	84.2	84.2	82.9	71	73.8	10.0	SSW	10.00	24.0	SW	83.1	91.7	90.6	29.989	0.00	0.00	0.000	0.800	84.6	38	56.2	84.4	1405	1	100.0	60
06/05/19	1:00 p	86.5	86.5	84.3	67	74.2	11.0	SW	11.00	25.0	SW	85.6	95.3	94.4	29.953	0.00	0.00	0.000	0.896	84.8	38	56.4	84.6	1405	1	100.0	60
06/05/19	2:00 p	87.8	87.8	86.5	64	74.1	11.0	SW	11.00	23.0	SW	87.2	96.2	95.6	29.924	0.00	0.00	0.000	0.950	87.2	35	56.2	86.3	1405	1	100.0	60
06/05/19	3:00 p	88.5	88.5	87.7	62	73.8	11.0	SSW	11.00	22.0	SSE	88.0	96.9	96.4	29.900	0.00	0.00	0.000	0.979	87.5	37	58.0	87.0	1405	1	100.0	60
06/05/19	4:00 p	89.7	89.7	88.5	59	73.5	10.0	SSW	10.00	29.0	SW	89.6	98.6	98.5	29.865	0.00	0.00	0.000	1.029	88.4	36	58.1	87.7	1405	1	100.0	60
06/05/19	5:00 p	82.8	89.7	82.8	72	72.8	11.0	SSW	11.00	31.0	WSW	81.3	88.6	87.1	29.888	0.15	1.56	0.000	0.742	88.0	37	58.5	87.3	1404	1	100.0	60
06/05/19	6:00 p	73.6	82.7	73.6	93	71.4	7.0	S	7.00	20.0	S	73.6	76.3	76.3	29.861	0.00	0.00	0.000	0.358	87.9	36	57.6	87.0	1405	1	100.0	60
06/05/19	7:00 p	72.8	73.6	72.8	96	71.6	6.0	SSW	6.00	21.0	SW	72.8	75.8	75.8	29.896	0.07	3.45	0.000	0.325	86.3	36	56.2	85.8	1405	1	100.0	60
06/05/19	8:00 p	70.3	72.8	70.3	97	69.4	6.0	S	6.00	21.0	SSE	70.3	73.3	73.3	29.902	0.36	2.62	0.000	0.221	86.1	38	57.5	85.9	1405	1	100.0	60
06/05/19	9:00 p	70.9	70.9	70.2	99	70.6	6.0	SSW	6.00	16.0	SSE	70.9	74.4	74.4	29.887	0.17	1.17	0.000	0.246	83.9	36	54.1	83.3	1405	1	100.0	60
06/05/19	10:00 p	71.9	71.9	71.0	100	71.9	7.0	SSW	7.00	17.0	WSW	71.9	75.5	75.5	29.879	0.01	0.06	0.000	0.288	84.1	38	55.7	84.0	1405	1	100.0	60
06/05/19	11:00 p	71.9	72.0	71.9	100	71.9	7.0	SSW	7.00	18.0	SSW	71.9	75.5	75.5	29.867	0.00	0.00	0.000	0.288	82.7	37	53.8	81.8	1405	1	100.0	60
06/06/19	12:00 a	71.9	71.9	71.7	100	71.9	7.0	SSW	7.00	20.0	SSE	71.9	75.5	75.5	29.857	0.00	0.00	0.000	0.288	83.1	39	55.6	82.7	1405	1	100.0	60
THURSDAY		Temp	Hi	Low	Out	Dew	Wind	Wind	Wind	Hi	Hi	Wind	Heat	THW			Rain	Heat	Cool	In 	In	In 	In 	Wind	Wind	ISS 	Arc.
Date		Time	Out	Temp	Temp	Hum	Pt.	Speed	Dir	Run	Speed	Dir	Chill	Index	Index	Bar  	Rain	Rate	D-D 	D-D 	Temp	Hum	Dew	Heat	Samp	Tx 	Recept	Int.
06/06/19	1:00 a	72.4	72.4	71.9	100	72.4	7.0	SSW	7.00	22.0	SSW	72.4	76.0	76.0	29.853	0.00	0.00	0.000	0.308	83.3	40	56.5	83.2	1404	1	100.0	60
06/06/19	2:00 a	72.3	72.4	72.3	100	72.3	7.0	SSW	7.00	18.0	SW	72.3	75.9	75.9	29.828	0.00	0.00	0.000	0.304	81.7	38	53.6	80.7	1405	1	100.0	60
06/06/19	3:00 a	72.4	72.5	72.3	100	72.4	7.0	SSW	7.00	18.0	WSW	72.4	76.0	76.0	29.806	0.00	0.00	0.000	0.308	82.1	40	55.4	81.4	1405	1	100.0	60
06/06/19	4:00 a	72.5	72.6	72.4	100	72.5	7.0	SW	7.00	18.0	SW	72.5	76.1	76.1	29.806	0.00	0.00	0.000	0.313	82.3	41	56.2	81.9	1405	1	100.0	60
06/06/19	5:00 a	72.2	72.6	72.2	100	72.2	6.0	SSW	6.00	16.0	WSW	72.2	75.8	75.8	29.800	0.00	0.00	0.000	0.300	82.4	41	56.3	82.0	1404	1	100.0	60
06/06/19	6:00 a	71.8	72.2	71.8	100	71.8	6.0	SW	6.00	13.0	SW	71.8	75.4	75.4	29.796	0.00	0.00	0.000	0.283	81.4	39	54.1	80.4	1406	1	100.0	60
06/06/19	7:00 a	72.4	72.4	71.8	100	72.4	6.0	SW	6.00	18.0	SSW	72.4	76.0	76.0	29.798	0.00	0.00	0.000	0.308	82.1	40	55.4	81.4	1404	1	100.0	60
06/06/19	8:00 a	73.9	73.9	72.4	100	73.9	7.0	SW	7.00	18.0	SW	73.9	77.5	77.5	29.809	0.00	0.00	0.000	0.371	82.3	41	56.2	81.9	1405	1	100.0	60
06/06/19	9:00 a	75.9	75.9	73.9	100	75.9	11.0	SW	11.00	20.0	SW	73.6	80.2	77.9	29.795	0.00	0.00	0.000	0.454	82.2	40	55.5	81.6	1405	1	100.0	60
06/06/19	10:00 a	79.4	79.4	75.9	90	76.2	7.0	SW	7.00	20.0	SSW	79.4	85.5	85.5	29.788	0.00	0.00	0.000	0.600	84.4	38	56.0	84.2	1405	1	100.0	60
06/06/19	11:00 a	83.2	83.2	79.4	78	75.6	7.0	W	7.00	19.0	W	83.2	91.6	91.6	29.790	0.00	0.00	0.000	0.758	85.2	39	57.4	85.1	1405	1	100.0	60
06/06/19	12:00 p	86.1	86.1	83.2	69	74.7	11.0	WSW	11.00	22.0	NNW	85.1	95.1	94.1	29.794	0.00	0.00	0.000	0.879	86.7	36	56.6	86.2	1405	1	100.0	60
06/06/19	1:00 p	87.2	87.2	86.1	70	76.2	7.0	WSW	7.00	10.0	WNW	87.2	97.8	97.8	29.783	0.00	0.00	0.000	0.925	88.0	40	60.7	88.1	1405	1	100.0	60
06/06/19	2:00 p	88.9	89.2	87.3	68	77.0	7.0	W	7.00	18.0	SW	88.9	100.9	100.9	29.778	0.00	0.00	0.000	0.996	89.2	34	57.2	88.4	1405	1	100.0	60
06/06/19	3:00 p	89.5	89.5	88.8	65	76.2	7.0	WSW	7.00	18.0	WNW	89.5	101.2	101.2	29.772	0.00	0.00	0.000	1.021	90.2	40	62.6	91.5	1405	1	100.0	60
06/06/19	4:00 p	90.4	90.4	89.5	61	75.1	6.0	WNW	6.00	17.0	W	90.4	101.4	101.4	29.763	0.00	0.00	0.000	1.058	90.7	33	57.6	90.4	1405	1	100.0	60
06/06/19	5:00 p	90.8	90.8	90.3	61	75.5	6.0	WNW	6.00	15.0	WNW	90.8	102.4	102.4	29.755	0.00	0.00	0.000	1.075	91.7	39	63.2	93.7	1405	1	100.0	60
06/06/19	6:00 p	90.2	90.8	90.2	61	74.9	5.0	WNW	5.00	14.0	WNW	90.2	100.9	100.9	29.753	0.00	0.00	0.000	1.050	90.5	35	59.1	90.5	1405	1	100.0	60
06/06/19	7:00 p	77.8	90.2	77.8	87	73.6	6.0	SSE	6.00	29.0	WSW	77.8	82.1	82.1	29.770	0.49	8.73	0.000	0.533	89.9	37	60.1	90.3	1404	1	100.0	60
06/06/19	8:00 p	76.3	77.8	76.3	94	74.4	4.0	SSW	4.00	14.0	WSW	76.3	80.4	80.4	29.791	0.00	0.00	0.000	0.471	87.2	34	55.4	86.1	1405	1	100.0	60
06/06/19	9:00 p	73.9	76.2	73.9	96	72.7	4.0	ESE	4.00	6.0	SSW	73.9	77.0	77.0	29.783	0.00	0.00	0.000	0.371	86.7	35	55.8	85.9	1405	1	100.0	60
06/06/19	10:00 p	73.6	73.9	73.6	97	72.7	4.0	SSE	4.00	6.0	SSE	73.6	76.8	76.8	29.813	0.00	0.00	0.000	0.358	86.9	36	56.7	86.3	1406	1	100.0	60
06/06/19	11:00 p	73.8	73.9	73.6	98	73.2	5.0	SSE	5.00	12.0	ESE	73.8	77.1	77.1	29.822	0.08	3.51	0.000	0.367	85.9	36	55.8	85.4	1404	1	100.0	60
06/07/19	12:00 a	73.6	73.8	73.6	99	73.3	5.0	SSW	5.00	12.0	S	73.6	77.1	77.1	29.825	0.00	0.00	0.000	0.358	84.6	36	54.7	84.0	1405	1	100.0	60
FRIDAY			Temp	Hi	Low	Out	Dew	Wind	Wind	Wind	Hi	Hi	Wind	Heat	THW			Rain	Heat	Cool	In 	In	In 	In 	Wind	Wind	ISS 	Arc.
Date		Time	Out	Temp	Temp	Hum	Pt.	Speed	Dir	Run	Speed	Dir	Chill	Index	Index	Bar  	Rain	Rate	D-D 	D-D 	Temp	Hum	Dew	Heat	Samp	Tx 	Recept	Int.
06/07/19	1:00 a	73.1	73.6	73.1	99	72.8	4.0	SW	4.00	10.0	SSE	73.1	76.5	76.5	29.824	0.00	0.00	0.000	0.337	84.9	37	55.7	84.5	1404	1	100.0	60
06/07/19	2:00 a	72.5	73.2	72.5	99	72.2	0.0	SW	0.00	6.0	SW	72.5	75.9	75.9	29.797	0.00	0.00	0.000	0.313	84.8	37	55.6	84.4	1405	1	100.0	60
06/07/19	3:00 a	72.3	72.5	72.3	99	72.0	4.0	SW	4.00	10.0	SW	72.3	75.7	75.7	29.789	0.00	0.00	0.000	0.304	82.9	37	54.0	82.0	1405	1	100.0	60
06/07/19	4:00 a	71.9	72.3	71.9	99	71.6	4.0	SSW	4.00	6.0	WSW	71.9	75.3	75.3	29.788	0.00	0.00	0.000	0.288	83.2	37	54.2	82.5	1405	1	100.0	60
06/07/19	5:00 a	71.7	71.9	71.6	99	71.4	4.0	WSW	4.00	7.0	WSW	71.7	75.2	75.2	29.796	0.00	0.00	0.000	0.279	83.1	38	54.9	82.5	1405	1	100.0	60
06/07/19	6:00 a	71.4	71.7	71.4	100	71.4	4.0	SW	4.00	10.0	S	71.4	75.1	75.1	29.810	0.00	0.00	0.000	0.267	83.0	38	54.8	82.3	1405	1	100.0	60
06/07/19	7:00 a	71.5	71.5	71.4	100	71.5	4.0	SSW	4.00	7.0	SSW	71.5	75.1	75.1	29.822	0.00	0.00	0.000	0.271	82.3	36	52.7	81.2	1405	1	100.0	60
06/07/19	8:00 a	72.3	72.3	71.5	100	72.3	0.0	WSW	0.00	4.0	WSW	72.3	75.9	75.9	29.832	0.00	0.00	0.000	0.304	82.2	38	54.1	81.3	1404	1	100.0	60
06/07/19	9:00 a	73.7	73.7	72.3	100	73.7	4.0	SW	4.00	7.0	SW	73.7	77.3	77.3	29.834	0.00	0.00	0.000	0.362	83.3	38	55.0	82.8	1405	1	100.0	60
06/07/19	10:00 a	74.4	74.8	73.7	100	74.4	4.0	WNW	4.00	12.0	WNW	74.4	78.1	78.1	29.830	0.00	0.00	0.000	0.392	83.1	36	53.4	82.1	1405	1	100.0	60
06/07/19	11:00 a	76.1	76.1	74.3	94	74.2	5.0	WNW	5.00	13.0	WNW	76.1	80.0	80.0	29.845	0.00	0.00	0.000	0.462	84.9	38	56.5	84.7	1405	1	100.0	60
06/07/19	12:00 p	78.1	78.1	76.1	84	72.9	5.0	NNE	5.00	10.0	NNW	78.1	82.1	82.1	29.849	0.00	0.00	0.000	0.546	85.8	36	55.8	85.3	1405	1	100.0	60
06/07/19	1:00 p	79.3	79.3	78.0	85	74.4	4.0	N	4.00	10.0	S	79.3	84.3	84.3	29.830	0.00	0.00	0.000	0.596	85.1	37	55.9	84.7	1405	1	100.0	60
06/07/19	2:00 p	82.6	82.6	79.3	80	75.8	5.0	ENE	5.00	12.0	ENE	82.6	90.6	90.6	29.817	0.00	0.00	0.000	0.733	87.1	39	59.1	87.2	1405	1	100.0	60
06/07/19	3:00 p	81.5	82.8	81.5	83	75.8	6.0	NE	6.00	19.0	ENE	81.5	88.5	88.5	29.813	0.00	0.00	0.000	0.688	86.3	37	57.0	86.0	1405	1	100.0	60
06/07/19	4:00 p	74.8	81.4	74.8	98	74.2	6.0	ENE	6.00	19.0	ENE	74.8	78.5	78.5	29.834	1.03	4.43	0.000	0.408	86.9	39	59.0	87.0	1405	1	100.0	60
06/07/19	5:00 p	72.5	74.8	72.5	98	71.9	5.0	E	5.00	11.0	SSE	72.5	75.8	75.8	29.838	1.10	4.27	0.000	0.313	86.3	36	56.2	85.8	1405	1	100.0	60
06/07/19	6:00 p	72.4	72.5	72.0	100	72.4	5.0	N	5.00	10.0	NW	72.4	76.0	76.0	29.841	0.70	5.43	0.000	0.308	84.8	37	55.6	84.4	1405	1	100.0	60
06/07/19	7:00 p	72.6	72.8	72.4	100	72.6	5.0	NE	5.00	12.0	NNE	72.6	76.2	76.2	29.849	0.10	0.17	0.000	0.317	84.8	38	56.4	84.6	1405	1	100.0	60
06/07/19	8:00 p	72.3	72.6	72.2	100	72.3	5.0	NE	5.00	12.0	E	72.3	75.9	75.9	29.866	0.28	24.00	0.000	0.304	82.7	37	53.8	81.8	1405	1	100.0	60
06/07/19	9:00 p	72.1	72.3	72.1	100	72.1	5.0	NE	5.00	13.0	ENE	72.1	75.7	75.7	29.873	0.00	0.00	0.000	0.296	83.2	38	55.0	82.7	1405	1	100.0	60
06/07/19	10:00 p	71.9	72.2	71.9	100	71.9	5.0	ENE	5.00	11.0	ENE	71.9	75.5	75.5	29.891	0.02	0.00	0.000	0.288	83.3	38	55.0	82.8	1404	1	100.0	60
06/07/19	11:00 p	71.7	72.0	71.7	100	71.7	5.0	NE	5.00	10.0	NE	71.7	75.3	75.3	29.898	0.01	0.00	0.000	0.279	82.0	37	53.2	80.9	1405	1	100.0	60
06/08/19	12:00 a	71.4	71.7	71.4	100	71.4	4.0	NE	4.00	10.0	ENE	71.4	75.1	75.1	29.905	0.03	0.00	0.000	0.267	82.7	37	53.8	81.8	1405	1	100.0	60
SATURDAY		Temp	Hi	Low	Out	Dew	Wind	Wind	Wind	Hi	Hi	Wind	Heat	THW			Rain	Heat	Cool	In 	In	In 	In 	Wind	Wind	ISS 	Arc.
Date		Time	Out	Temp	Temp	Hum	Pt.	Speed	Dir	Run	Speed	Dir	Chill	Index	Index	Bar  	Rain	Rate	D-D 	D-D 	Temp	Hum	Dew	Heat	Samp	Tx 	Recept	Int.
06/08/19	1:00 a	71.5	71.6	71.4	100	71.5	4.0	ENE	4.00	7.0	NE	71.5	75.1	75.1	29.898	0.07	0.12	0.000	0.271	82.6	38	54.4	81.8	1403	1	100.0	60
06/08/19	2:00 a	71.9	71.9	71.5	100	71.9	4.0	NE	4.00	6.0	NE	71.9	75.5	75.5	29.891	0.02	0.04	0.000	0.288	82.5	38	54.3	81.7	1405	1	100.0	60
06/08/19	3:00 a	72.2	72.2	71.9	100	72.2	4.0	NE	4.00	10.0	ENE	72.2	75.8	75.8	29.896	0.04	0.19	0.000	0.300	82.5	39	55.0	81.9	1405	1	100.0	60
06/08/19	4:00 a	71.3	72.2	71.3	100	71.3	6.0	NE	6.00	15.0	E	71.3	75.0	75.0	29.901	0.02	0.14	0.000	0.263	82.5	39	55.0	81.9	1405	1	100.0	60
06/08/19	5:00 a	71.2	71.3	71.0	100	71.2	6.0	NE	6.00	15.0	NNE	71.2	74.9	74.9	29.914	0.02	0.00	0.000	0.258	81.0	38	53.0	79.8	1405	1	100.0	60
06/08/19	6:00 a	71.5	71.6	71.2	100	71.5	5.0	NE	5.00	12.0	NE	71.5	75.1	75.1	29.918	0.01	0.00	0.000	0.271	81.4	39	54.1	80.4	1405	1	100.0	60
06/08/19	7:00 a	71.7	71.9	71.5	100	71.7	5.0	ENE	5.00	14.0	NE	71.7	75.3	75.3	29.931	0.00	0.00	0.000	0.279	81.7	39	54.3	80.8	1405	1	100.0	60
06/08/19	8:00 a	70.7	71.7	70.6	100	70.7	7.0	NE	7.00	17.0	NE	70.7	74.3	74.3	29.947	0.00	0.00	0.000	0.237	81.4	39	54.1	80.4	1405	1	100.0	60
06/08/19	9:00 a	70.9	71.0	70.6	100	70.9	10.0	ENE	10.00	20.0	ENE	68.8	74.6	72.5	29.959	0.00	0.00	0.000	0.246	80.5	39	53.3	79.4	1405	1	100.0	60
06/08/19	10:00 a	70.0	70.8	69.8	100	70.0	12.0	NE	12.00	21.0	NNE	66.9	73.5	70.4	29.971	0.00	0.00	0.000	0.208	81.7	40	55.0	80.9	1404	1	100.0	60
06/08/19	11:00 a	71.2	71.2	69.9	100	71.2	11.0	ENE	11.00	24.0	NNE	68.6	74.9	72.3	29.990	0.00	0.00	0.000	0.258	80.6	39	53.4	79.5	1405	1	100.0	60
06/08/19	12:00 p	71.3	71.5	71.2	98	70.7	11.0	ENE	11.00	23.0	NE	68.7	74.6	72.0	30.006	0.00	0.00	0.000	0.263	82.2	40	55.5	81.6	1406	1	100.0	60
06/08/19	1:00 p	71.4	71.4	71.2	96	70.2	11.0	ENE	11.00	21.0	ENE	68.8	74.3	71.7	30.015	0.00	0.00	0.000	0.267	83.1	41	57.0	83.0	1404	1	100.0	60
06/08/19	2:00 p	71.1	71.6	71.1	95	69.6	12.0	NE	12.00	21.0	N	68.0	73.8	70.7	30.018	0.00	0.00	0.000	0.254	82.2	38	54.1	81.3	1405	1	100.0	60
06/08/19	3:00 p	71.5	71.5	71.0	95	70.0	11.0	NE	11.00	21.0	NE	68.9	74.3	71.7	30.001	0.00	0.00	0.000	0.271	82.4	41	56.3	82.0	1405	1	100.0	60
06/08/19	4:00 p	71.5	71.7	71.5	95	70.0	12.0	NE	12.00	22.0	ENE	68.5	74.3	71.3	29.992	0.00	0.00	0.000	0.271	83.4	42	57.9	83.7	1405	1	100.0	60
06/08/19	5:00 p	71.5	71.6	71.2	95	70.0	12.0	ENE	12.00	23.0	ENE	68.5	74.3	71.3	29.993	0.00	0.00	0.000	0.271	82.4	41	56.3	82.0	1405	1	100.0	60
06/08/19	6:00 p	71.9	71.9	71.5	95	70.4	12.0	NE	12.00	23.0	ENE	68.9	74.7	71.7	29.999	0.00	0.00	0.000	0.288	83.0	42	57.5	83.0	1405	1	100.0	60
06/08/19	7:00 p	71.2	71.9	71.2	96	70.0	12.0	NE	12.00	22.0	NNE	68.1	74.1	71.0	30.017	0.00	0.00	0.000	0.258	82.0	40	55.3	81.3	1405	1	100.0	60
06/08/19	8:00 p	70.5	71.2	70.5	96	69.3	12.0	NE	12.00	21.0	NE	67.4	73.3	70.2	30.020	0.00	0.00	0.000	0.229	81.0	41	55.1	80.1	1405	1	100.0	60
06/08/19	9:00 p	70.4	70.5	70.4	97	69.5	11.0	NE	11.00	29.0	NE	67.8	73.4	70.8	30.026	0.00	0.00	0.000	0.225	81.0	40	54.4	80.0	1405	1	100.0	60
06/08/19	10:00 p	70.6	70.7	70.4	96	69.4	11.0	NE	11.00	20.0	NNE	68.0	73.4	70.8	30.027	0.00	0.00	0.000	0.233	80.3	41	54.5	79.4	1405	1	100.0	60
06/08/19	11:00 p	71.1	71.1	70.6	97	70.2	10.0	NE	10.00	18.0	ENE	69.0	74.2	72.1	30.032	0.00	0.00	0.000	0.254	80.7	43	56.1	80.1	1405	1	100.0	60
06/09/19	12:00 a	72.0	72.0	71.0	98	71.4	10.0	NE	10.00	19.0	ENE	69.9	75.3	73.2	30.037	0.00	0.00	0.000	0.292	79.3	41	53.6	78.5	1405	1	100.0	60
SUNDAY			Temp	Hi	Low	Out	Dew	Wind	Wind	Wind	Hi	Hi	Wind	Heat	THW			Rain	Heat	Cool	In 	In	In 	In 	Wind	Wind	ISS 	Arc.
Date		Time	Out	Temp	Temp	Hum	Pt.	Speed	Dir	Run	Speed	Dir	Chill	Index	Index	Bar  	Rain	Rate	D-D 	D-D 	Temp	Hum	Dew	Heat	Samp	Tx 	Recept	Int.
06/09/19	1:00 a	72.2	72.2	71.9	97	71.3	12.0	NE	12.00	21.0	NE	69.2	75.3	72.3	30.024	0.00	0.00	0.000	0.300	79.9	43	55.4	79.3	1403	1	100.0	60
06/09/19	2:00 a	72.1	72.5	72.1	99	71.8	12.0	NE	12.00	21.0	ESE	69.1	75.5	72.5	29.996	0.01	0.00	0.000	0.296	80.2	45	56.9	79.8	1405	1	100.0	60
06/09/19	3:00 a	72.1	72.2	72.0	98	71.5	12.0	NE	12.00	23.0	ENE	69.1	75.4	72.4	29.975	0.00	0.00	0.000	0.296	80.4	46	57.7	80.1	1405	1	100.0	60
06/09/19	4:00 a	71.9	72.2	71.9	99	71.6	12.0	NE	12.00	22.0	NE	68.9	75.3	72.3	29.962	0.01	0.00	0.000	0.288	80.7	47	58.6	80.5	1405	1	100.0	60
06/09/19	5:00 a	72.3	72.3	71.9	99	72.0	12.0	ENE	12.00	21.0	NE	69.3	75.7	72.7	29.958	0.00	0.00	0.000	0.304	80.9	47	58.8	80.7	1405	1	100.0	60
06/09/19	6:00 a	72.5	72.6	72.3	99	72.2	7.0	ENE	7.00	20.0	NE	72.5	75.9	75.9	29.966	0.00	0.00	0.000	0.313	81.0	48	59.5	81.0	1405	1	100.0	60
06/09/19	7:00 a	72.8	72.8	72.5	100	72.8	5.0	SSE	5.00	16.0	ENE	72.8	76.4	76.4	29.991	0.00	0.00	0.000	0.325	80.8	45	57.5	80.4	1405	1	100.0	60
06/09/19	8:00 a	73.4	73.4	72.8	100	73.4	3.0	SSE	3.00	9.0	SSE	73.4	77.0	77.0	30.012	0.00	0.00	0.000	0.350	80.5	44	56.6	80.0	1405	1	100.0	60
06/09/19	9:00 a	75.0	75.0	73.4	100	75.0	3.0	SSE	3.00	10.0	S	75.0	78.8	78.8	30.027	0.00	0.00	0.000	0.417	80.0	43	55.5	79.4	1405	1	100.0	60
06/09/19	10:00 a	78.5	78.5	75.0	98	77.9	3.0	SSE	3.00	11.0	S	78.5	85.2	85.2	30.029	0.00	0.00	0.000	0.563	81.8	44	57.8	81.5	1405	1	100.0	60
06/09/19	11:00 a	80.8	80.8	78.5	86	76.2	4.0	SSE	4.00	10.0	SSE	80.8	87.6	87.6	30.035	0.00	0.00	0.000	0.658	81.6	43	56.9	81.1	1405	1	100.0	60
06/09/19	12:00 p	81.9	82.0	80.7	83	76.2	3.0	SSE	3.00	11.0	SE	81.9	89.5	89.5	30.036	0.00	0.00	0.000	0.704	84.6	45	60.9	85.6	1405	1	100.0	60
06/09/19	1:00 p	82.1	82.2	81.6	84	76.8	3.0	SSE	3.00	16.0	ENE	82.1	90.4	90.4	30.027	0.00	0.00	0.000	0.712	85.1	41	58.8	85.4	1404	1	100.0	60
06/09/19	2:00 p	82.2	82.2	81.8	83	76.5	7.0	ENE	7.00	18.0	NE	82.2	90.3	90.3	30.013	0.00	0.00	0.000	0.717	87.5	44	62.9	88.9	1405	1	100.0	60
06/09/19	3:00 p	82.4	82.5	82.1	81	76.0	7.0	ENE	7.00	21.0	NE	82.4	90.3	90.3	30.001	0.00	0.00	0.000	0.725	87.2	39	59.2	87.3	1405	1	100.0	60
06/09/19	4:00 p	82.4	82.9	82.4	82	76.3	7.0	ENE	7.00	23.0	ENE	82.4	90.6	90.6	30.002	0.00	0.00	0.000	0.725	89.4	42	63.3	91.3	1405	1	100.0	60
06/09/19	5:00 p	83.1	83.1	82.4	80	76.3	6.0	SE	6.00	16.0	ENE	83.1	92.0	92.0	29.997	0.00	0.00	0.000	0.754	88.0	38	59.2	87.6	1405	1	100.0	60
06/09/19	6:00 p	82.5	83.7	82.5	79	75.3	6.0	SSE	6.00	15.0	SSE	82.5	90.0	90.0	29.992	0.00	0.00	0.000	0.729	89.6	40	62.1	90.7	1406	1	100.0	60
06/09/19	7:00 p	79.3	82.5	79.3	85	74.4	6.0	ENE	6.00	15.0	NE	79.3	84.3	84.3	30.003	0.00	0.00	0.000	0.596	87.7	37	58.2	87.1	1404	1	100.0	60
06/09/19	8:00 p	77.9	79.3	77.9	88	74.1	5.0	ENE	5.00	12.0	WSW	77.9	82.4	82.4	30.009	0.00	0.00	0.000	0.538	87.0	37	57.6	86.7	1405	1	100.0	60
06/09/19	9:00 p	76.6	77.9	76.6	90	73.4	5.0	SE	5.00	14.0	S	76.6	80.4	80.4	30.018	0.00	0.00	0.000	0.483	87.2	39	59.2	87.3	1405	1	100.0	60
06/09/19	10:00 p	75.5	76.6	75.5	93	73.3	5.0	E	5.00	11.0	SSE	75.5	79.2	79.2	30.017	0.00	0.00	0.000	0.438	84.5	37	55.4	84.1	1405	1	100.0	60
06/09/19	11:00 p	74.9	75.5	74.9	94	73.1	5.0	E	5.00	6.0	E	74.9	78.5	78.5	30.017	0.00	0.00	0.000	0.413	85.2	38	56.7	85.0	1405	1	100.0	60
06/10/19	12:00 a	74.4	74.9	74.4	96	73.2	4.0	ESE	4.00	6.0	ESE	74.4	77.8	77.8	30.010	0.00	0.00	0.000	0.392	85.2	37	56.0	84.8	1405	1	100.0	60
MONDAY			Temp	Hi	Low	Out	Dew	Wind	Wind	Wind	Hi	Hi	Wind	Heat	THW			Rain	Heat	Cool	In 	In	In 	In 	Wind	Wind	ISS 	Arc.
Date		Time	Out	Temp	Temp	Hum	Pt.	Speed	Dir	Run	Speed	Dir	Chill	Index	Index	Bar  	Rain	Rate	D-D 	D-D 	Temp	Hum	Dew	Heat	Samp	Tx 	Recept	Int.
06/10/19	1:00 a	74.1	74.4	74.1	97	73.2	4.0	SE	4.00	11.0	W	74.1	77.4	77.4	30.001	0.00	0.00	0.000	0.379	83.1	37	54.1	82.3	1403	1	100.0	60
06/10/19	2:00 a	74.2	74.3	74.1	98	73.6	4.0	S	4.00	11.0	W	74.2	77.6	77.6	29.991	0.00	0.00	0.000	0.383	83.3	39	55.8	83.0	1406	1	100.0	60
06/10/19	3:00 a	73.8	74.2	73.8	98	73.2	4.0	S	4.00	7.0	S	73.8	77.1	77.1	29.983	0.00	0.00	0.000	0.367	83.2	39	55.7	82.8	1404	1	100.0	60
06/10/19	4:00 a	73.5	73.9	73.5	98	72.9	4.0	S	4.00	6.0	S	73.5	76.8	76.8	29.977	0.00	0.00	0.000	0.354	83.1	40	56.3	82.9	1406	1	100.0	60
06/10/19	5:00 a	73.2	73.5	73.2	98	72.6	0.0	S	0.00	6.0	S	73.2	76.5	76.5	29.969	0.00	0.00	0.000	0.342	82.9	40	56.1	82.6	1404	1	100.0	60
06/10/19	6:00 a	72.7	73.2	72.7	98	72.1	4.0	S	4.00	6.0	S	72.7	76.0	76.0	29.971	0.00	0.00	0.000	0.321	82.7	41	56.6	82.4	1405	1	100.0	60
06/10/19	7:00 a	73.8	73.8	72.6	100	73.8	4.0	S	4.00	7.0	S	73.8	77.4	77.4	29.986	0.00	0.00	0.000	0.367	82.7	40	55.9	82.3	1405	1	100.0	60
06/10/19	8:00 a	77.3	77.3	73.8	100	77.3	6.0	S	6.00	13.0	SSE	77.3	82.9	82.9	29.992	0.00	0.00	0.000	0.513	82.0	39	54.6	81.2	1405	1	100.0	60
06/10/19	9:00 a	79.5	79.5	77.3	95	77.9	5.0	S	5.00	13.0	SSE	79.5	87.0	87.0	29.986	0.00	0.00	0.000	0.604	83.3	40	56.5	83.2	1405	1	100.0	60
06/10/19	10:00 a	83.0	83.0	79.6	87	78.7	6.0	S	6.00	16.0	SW	83.0	93.8	93.8	29.975	0.00	0.00	0.000	0.750	83.4	37	54.4	82.8	1405	1	100.0	60
06/10/19	11:00 a	85.2	85.2	83.0	81	78.7	6.0	SW	6.00	16.0	ESE	85.2	97.3	97.3	29.963	0.00	0.00	0.000	0.842	85.3	41	58.9	85.6	1405	1	100.0	60
06/10/19	12:00 p	86.2	86.6	85.2	76	77.7	6.0	SW	6.00	17.0	SW	86.2	97.9	97.9	29.955	0.00	0.00	0.000	0.883	85.9	36	55.8	85.4	1405	1	100.0	60
06/10/19	1:00 p	87.2	87.2	85.7	75	78.3	7.0	S	7.00	17.0	SSE	87.2	100.0	100.0	29.938	0.00	0.00	0.000	0.925	87.1	42	61.2	88.0	1405	1	100.0	60
06/10/19	2:00 p	89.5	89.5	87.2	70	78.4	10.0	S	10.00	19.0	SSE	89.4	104.1	104.0	29.912	0.00	0.00	0.000	1.021	87.9	36	57.6	87.0	1405	1	100.0	60
06/10/19	3:00 p	89.3	90.2	89.3	72	79.1	11.0	S	11.00	31.0	SSE	89.0	104.7	104.4	29.922	0.00	0.00	0.000	1.013	89.2	41	62.4	90.6	1405	1	100.0	60
06/10/19	4:00 p	78.8	89.3	78.8	92	76.3	6.0	S	6.00	20.0	SSE	78.8	84.7	84.7	29.905	0.05	0.93	0.000	0.575	88.2	34	56.3	86.9	1404	1	100.0	60
06/10/19	5:00 p	79.8	79.9	78.2	98	79.2	5.0	SSE	5.00	13.0	SE	79.8	88.5	88.5	29.887	0.01	0.00	0.000	0.617	88.4	40	61.0	88.9	1405	1	100.0	60
06/10/19	6:00 p	79.6	80.0	79.6	95	78.0	6.0	SSE	6.00	15.0	SSE	79.6	87.2	87.2	29.879	0.00	0.00	0.000	0.608	88.0	35	56.9	86.8	1405	1	100.0	60
06/10/19	7:00 p	78.7	79.6	78.7	94	76.8	5.0	S	5.00	12.0	S	78.7	84.9	84.9	29.869	0.00	0.00	0.000	0.571	87.5	39	59.5	87.5	1405	1	100.0	60
06/10/19	8:00 p	78.2	78.7	78.2	94	76.3	5.0	S	5.00	13.0	S	78.2	83.7	83.7	29.866	0.00	0.00	0.000	0.550	87.2	40	59.9	87.5	1405	1	100.0	60
06/10/19	9:00 p	77.3	78.3	77.2	94	75.4	4.0	S	4.00	10.0	SSE	77.3	82.0	82.0	29.867	0.00	0.00	0.000	0.513	84.9	38	56.5	84.7	1405	1	100.0	60
06/10/19	10:00 p	76.6	77.3	76.6	95	75.1	5.0	S	5.00	12.0	WSW	76.6	80.9	80.9	29.876	0.00	0.00	0.000	0.483	85.4	39	57.6	85.4	1405	1	100.0	60
06/10/19	11:00 p	75.6	76.6	75.6	93	73.4	5.0	S	5.00	15.0	S	75.6	79.3	79.3	29.877	0.00	0.00	0.000	0.442	83.4	37	54.4	82.8	1405	1	100.0	60
06/11/19	12:00 a	74.9	75.6	74.9	94	73.1	5.0	SSW	5.00	13.0	SSW	74.9	78.5	78.5	29.870	0.00	0.00	0.000	0.413	84.2	39	56.6	84.3	1405	1	100.0	60
TUESDAY			Temp	Hi	Low	Out	Dew	Wind	Wind	Wind	Hi	Hi	Wind	Heat	THW			Rain	Heat	Cool	In 	In	In 	In 	Wind	Wind	ISS 	Arc.
Date		Time	Out	Temp	Temp	Hum	Pt.	Speed	Dir	Run	Speed	Dir	Chill	Index	Index	Bar  	Rain	Rate	D-D 	D-D 	Temp	Hum	Dew	Heat	Samp	Tx 	Recept	Int.
06/11/19	1:00 a	74.4	74.9	74.4	95	72.9	5.0	SSW	5.00	12.0	WSW	74.4	77.7	77.7	29.858	0.00	0.00	0.000	0.392	84.5	40	57.5	84.7	1404	1	100.0	60
06/11/19	2:00 a	74.4	74.5	74.3	97	73.5	5.0	SSW	5.00	15.0	SW	74.4	77.8	77.8	29.852	0.02	0.05	0.000	0.392	82.8	39	55.3	82.3	1405	1	100.0	60
06/11/19	3:00 a	73.5	74.4	73.5	98	72.9	5.0	SW	5.00	17.0	WSW	73.5	76.8	76.8	29.846	0.06	0.15	0.000	0.354	83.3	39	55.8	83.0	1405	1	100.0	60
06/11/19	4:00 a	72.7	73.5	72.7	99	72.4	3.0	WSW	3.00	13.0	W	72.7	76.1	76.1	29.852	0.00	0.00	0.000	0.321	83.4	40	56.5	83.3	1405	1	100.0	60
06/11/19	5:00 a	72.0	72.8	72.0	99	71.7	4.0	W	4.00	12.0	WNW	72.0	75.4	75.4	29.874	0.00	0.00	0.000	0.292	83.3	40	56.5	83.2	1404	1	100.0	60
06/11/19	6:00 a	71.9	72.0	71.8	100	71.9	5.0	WNW	5.00	19.0	NW	71.9	75.5	75.5	29.886	0.00	0.00	0.000	0.288	82.1	39	54.7	81.3	1405	1	100.0	60
06/11/19	7:00 a	69.2	71.9	69.2	96	68.0	12.0	NNW	12.00	24.0	NNE	66.1	71.7	68.6	29.925	0.00	0.00	0.000	0.175	82.7	40	55.9	82.3	1405	1	100.0	60
06/11/19	8:00 a	69.2	69.2	69.0	95	67.7	11.0	NNW	11.00	23.0	NNW	66.6	71.5	68.9	29.951	0.01	0.00	0.000	0.175	83.0	41	56.9	82.9	1405	1	100.0	60
06/11/19	9:00 a	69.2	69.5	69.2	84	64.2	12.0	NNW	12.00	26.0	N	66.1	70.9	67.8	29.986	0.00	0.00	0.000	0.175	81.4	40	54.8	80.5	1405	1	100.0	60
06/11/19	10:00 a	68.7	69.2	68.6	79	61.9	13.0	NNW	13.00	24.0	NNW	65.1	70.0	66.4	29.993	0.00	0.00	0.000	0.154	82.4	41	56.3	82.0	1405	1	100.0	60
06/11/19	11:00 a	70.4	70.4	68.7	78	63.2	11.0	NNW	11.00	20.0	NNW	67.8	71.4	68.8	29.996	0.00	0.00	0.000	0.225	82.8	41	56.7	82.6	1405	1	100.0	60
06/11/19	12:00 p	72.4	72.4	70.4	72	62.9	11.0	NW	11.00	20.0	NNW	69.8	73.4	70.8	30.005	0.00	0.00	0.000	0.308	82.5	39	55.0	81.9	1405	1	100.0	60
06/11/19	1:00 p	73.9	73.9	72.4	67	62.2	11.0	NW	11.00	21.0	W	71.4	75.2	72.7	30.002	0.00	0.00	0.000	0.371	84.2	41	57.9	84.6	1405	1	100.0	60
06/11/19	2:00 p	76.0	76.0	73.9	58	60.2	11.0	NW	11.00	21.0	NNW	73.7	76.5	74.2	30.006	0.00	0.00	0.000	0.458	85.1	37	55.9	84.7	1405	1	100.0	60
06/11/19	3:00 p	76.7	76.8	76.0	57	60.3	12.0	NNW	12.00	24.0	WNW	74.1	77.2	74.6	29.999	0.00	0.00	0.000	0.487	86.4	40	59.2	86.7	1405	1	100.0	60
06/11/19	4:00 p	77.8	77.8	76.7	54	59.8	11.0	NW	11.00	21.0	NW	75.6	78.2	76.0	30.002	0.00	0.00	0.000	0.533	88.0	37	58.5	87.3	1405	1	100.0	60
06/11/19	5:00 p	79.1	79.2	77.8	49	58.3	12.0	NW	12.00	20.0	WNW	76.7	79.2	76.8	30.003	0.00	0.00	0.000	0.587	88.1	38	59.3	87.8	1405	1	100.0	60
06/11/19	6:00 p	79.2	79.4	79.1	45	56.0	12.0	NNW	12.00	21.0	NW	76.8	78.9	76.5	30.005	0.00	0.00	0.000	0.592	89.6	38	60.6	90.1	1405	1	100.0	60
06/11/19	7:00 p	78.8	79.2	78.8	47	56.9	10.0	NNW	10.00	20.0	WNW	77.1	78.7	77.0	30.014	0.00	0.00	0.000	0.575	88.0	35	56.9	86.8	1404	1	100.0	60
06/11/19	8:00 p	77.2	78.9	77.2	49	56.6	7.0	NNW	7.00	18.0	NNW	77.2	77.0	77.0	30.024	0.00	0.00	0.000	0.508	87.6	37	58.1	87.1	1405	1	100.0	60
06/11/19	9:00 p	74.0	77.2	74.0	63	60.6	7.0	NE	7.00	17.0	NE	74.0	75.0	75.0	30.041	0.00	0.00	0.000	0.375	85.5	35	54.7	84.8	1405	1	100.0	60
06/11/19	10:00 p	71.6	74.0	71.6	70	61.3	4.0	NE	4.00	6.0	NE	71.6	72.2	72.2	30.051	0.00	0.00	0.000	0.275	84.6	36	54.7	84.0	1405	1	100.0	60
06/11/19	11:00 p	68.2	71.6	68.2	77	60.7	0.0	NE	0.00	5.0	NE	68.2	69.3	69.3	30.060	0.00	0.00	0.000	0.133	84.1	38	55.7	84.0	1405	1	100.0	60
06/12/19	12:00 a	65.8	68.2	65.8	82	60.2	0.0	NE	0.00	5.0	NE	65.8	66.7	66.7	30.076	0.00	0.00	0.000	0.033	83.8	38	55.5	83.6	1406	1	100.0	60
WEDNESDAY		Temp	Hi	Low	Out	Dew	Wind	Wind	Wind	Hi	Hi	Wind	Heat	THW			Rain	Heat	Cool	In 	In	In 	In 	Wind	Wind	ISS 	Arc.
Date		Time	Out	Temp	Temp	Hum	Pt.	Speed	Dir	Run	Speed	Dir	Chill	Index	Index	Bar  	Rain	Rate	D-D 	D-D 	Temp	Hum	Dew	Heat	Samp	Tx 	Recept	Int.
06/12/19	1:00 a	64.1	65.8	64.1	85	59.5	0.0	NE	0.00	5.0	NE	64.1	64.7	64.7	30.079	0.00	0.00	0.038	0.000	83.2	39	55.7	82.8	1403	1	100.0	60
06/12/19	2:00 a	62.5	64.1	62.5	89	59.2	0.0	NE	0.00	5.0	NE	62.5	63.1	63.1	30.073	0.00	0.00	0.104	0.000	82.6	39	55.1	82.0	1405	1	100.0	60
06/12/19	3:00 a	61.2	62.5	61.2	91	58.6	0.0	NE	0.00	5.0	NE	61.2	61.6	61.6	30.068	0.00	0.00	0.158	0.000	81.9	40	55.2	81.2	1405	1	100.0	60
06/12/19	4:00 a	60.3	61.2	60.3	93	58.3	0.0	NE	0.00	5.0	NE	60.3	60.7	60.7	30.068	0.00	0.00	0.196	0.000	81.2	40	54.6	80.3	1405	1	100.0	60
06/12/19	5:00 a	59.6	60.3	59.6	94	57.9	0.0	NE	0.00	5.0	NE	59.6	60.0	60.0	30.069	0.00	0.00	0.225	0.000	80.5	41	54.6	79.6	1405	1	100.0	60
06/12/19	6:00 a	59.3	59.6	59.3	95	57.9	0.0	NNW	0.00	10.0	ENE	59.3	59.7	59.7	30.082	0.00	0.00	0.238	0.000	80.5	41	54.6	79.6	1405	1	100.0	60
06/12/19	7:00 a	66.2	66.2	59.3	81	60.2	5.0	NE	5.00	15.0	NE	66.2	67.2	67.2	30.091	0.00	0.00	0.000	0.050	80.4	40	53.9	79.4	1404	1	100.0	60
06/12/19	8:00 a	71.3	71.3	66.2	71	61.4	7.0	ENE	7.00	20.0	ENE	71.3	71.9	71.9	30.106	0.00	0.00	0.000	0.263	80.6	41	54.7	79.7	1405	1	100.0	60
06/12/19	9:00 a	72.8	72.9	71.3	62	59.0	7.0	ENE	7.00	18.0	NE	72.8	73.2	73.2	30.114	0.00	0.00	0.000	0.325	81.3	41	55.3	80.5	1405	1	100.0	60
06/12/19	10:00 a	73.0	73.1	72.7	66	61.0	7.0	ENE	7.00	19.0	NE	73.0	73.8	73.8	30.117	0.00	0.00	0.000	0.333	81.1	40	54.5	80.1	1405	1	100.0	60
06/12/19	11:00 a	74.9	74.9	73.0	66	62.8	7.0	ENE	7.00	19.0	NE	74.9	76.3	76.3	30.118	0.00	0.00	0.000	0.413	82.7	40	55.9	82.3	1405	1	100.0	60
06/12/19	12:00 p	76.5	76.5	74.9	59	61.1	6.0	ENE	6.00	20.0	NNE	76.5	77.2	77.2	30.104	0.00	0.00	0.000	0.479	82.2	37	53.3	81.2	1405	1	100.0	60
06/12/19	1:00 p	76.5	77.0	76.3	64	63.4	7.0	NE	7.00	21.0	ENE	76.5	77.7	77.7	30.085	0.00	0.00	0.000	0.479	84.4	39	56.7	84.4	1405	1	100.0	60
06/12/19	2:00 p	75.2	76.8	75.2	63	61.7	10.0	ENE	10.00	19.0	ENE	73.2	76.3	74.3	30.072	0.00	0.00	0.000	0.425	84.8	37	55.6	84.4	1405	1	100.0	60
06/12/19	3:00 p	75.7	75.7	75.0	60	60.8	7.0	ENE	7.00	19.0	NE	75.7	76.5	76.5	30.060	0.00	0.00	0.000	0.446	85.2	38	56.7	85.0	1405	1	100.0	60
06/12/19	4:00 p	76.1	76.2	75.7	56	59.3	7.0	ENE	7.00	19.0	ENE	76.1	76.5	76.5	30.040	0.00	0.00	0.000	0.462	85.4	37	56.2	85.0	1405	1	100.0	60
06/12/19	5:00 p	75.2	76.1	75.1	66	63.1	6.0	ENE	6.00	19.0	NE	75.2	76.6	76.6	30.018	0.00	0.00	0.000	0.425	85.6	39	57.8	85.6	1405	1	100.0	60
06/12/19	6:00 p	74.5	75.2	74.5	74	65.7	5.0	NE	5.00	17.0	NE	74.5	76.4	76.4	29.997	0.00	0.00	0.000	0.396	86.4	41	59.9	86.9	1405	1	100.0	60
06/12/19	7:00 p	73.3	74.5	73.3	79	66.4	6.0	ENE	6.00	15.0	NE	73.3	75.1	75.1	29.988	0.00	0.00	0.000	0.346	84.7	37	55.5	84.3	1405	1	100.0	60
06/12/19	8:00 p	72.9	73.4	72.8	83	67.4	5.0	ENE	5.00	16.0	NE	72.9	74.8	74.8	29.978	0.00	0.00	0.000	0.329	85.2	38	56.7	85.0	1405	1	100.0	60
06/12/19	9:00 p	70.4	72.9	70.4	85	65.7	5.0	SSE	5.00	15.0	SE	70.4	72.0	72.0	29.969	0.01	0.00	0.000	0.225	84.9	39	57.2	84.8	1405	1	100.0	60
06/12/19	10:00 p	68.0	70.4	68.0	93	65.9	0.0	NE	0.00	5.0	ENE	68.0	69.8	69.8	29.954	0.00	0.00	0.000	0.125	82.7	38	54.5	82.0	1404	1	100.0	60
06/12/19	11:00 p	68.3	69.0	68.0	94	66.5	5.0	NE	5.00	14.0	ENE	68.3	70.3	70.3	29.924	0.00	0.00	0.000	0.138	83.0	39	55.5	82.5	1405	1	100.0	60
06/13/19	12:00 a	68.8	68.8	68.1	97	67.9	5.0	NE	5.00	14.0	NE	68.8	71.2	71.2	29.893	0.00	0.00	0.000	0.158	82.8	39	55.3	82.3	1405	1	100.0	60
THURSDAY		Temp	Hi	Low	Out	Dew	Wind	Wind	Wind	Hi	Hi	Wind	Heat	THW			Rain	Heat	Cool	In 	In	In 	In 	Wind	Wind	ISS 	Arc.
Date		Time	Out	Temp	Temp	Hum	Pt.	Speed	Dir	Run	Speed	Dir	Chill	Index	Index	Bar  	Rain	Rate	D-D 	D-D 	Temp	Hum	Dew	Heat	Samp	Tx 	Recept	Int.
06/13/19	1:00 a	69.4	69.4	68.8	98	68.8	5.0	ENE	5.00	11.0	ENE	69.4	72.2	72.2	29.858	0.00	0.00	0.000	0.183	82.8	40	56.0	82.4	1404	1	100.0	60
06/13/19	2:00 a	70.0	70.0	69.4	99	69.7	4.0	SSE	4.00	7.0	SSE	70.0	73.3	73.3	29.813	0.00	0.00	0.000	0.208	82.7	40	55.9	82.3	1405	1	100.0	60
06/13/19	3:00 a	70.9	70.9	70.0	99	70.6	6.0	SSE	6.00	15.0	S	70.9	74.4	74.4	29.776	0.00	0.00	0.000	0.246	81.1	39	53.8	80.0	1405	1	100.0	60
06/13/19	4:00 a	71.6	71.6	70.9	99	71.3	7.0	SSE	7.00	17.0	S	71.6	75.1	75.1	29.753	0.00	0.00	0.000	0.275	81.5	40	54.8	80.7	1405	1	100.0	60
06/13/19	5:00 a	72.1	72.1	71.5	100	72.1	6.0	S	6.00	15.0	SSE	72.1	75.7	75.7	29.739	0.00	0.00	0.000	0.296	81.7	40	55.0	80.9	1405	1	100.0	60
06/13/19	6:00 a	72.5	72.5	72.1	100	72.5	6.0	SSW	6.00	15.0	S	72.5	76.1	76.1	29.737	0.00	0.00	0.000	0.313	81.9	41	55.9	81.3	1405	1	100.0	60
06/13/19	7:00 a	72.9	72.9	72.5	100	72.9	6.0	SSW	6.00	18.0	S	72.9	76.5	76.5	29.747	0.01	0.00	0.000	0.329	82.1	41	56.1	81.6	1405	1	100.0	60
06/13/19	8:00 a	70.6	72.9	70.6	96	69.4	7.0	SSW	7.00	23.0	SW	70.6	73.4	73.4	29.772	0.04	0.92	0.000	0.233	81.2	41	55.3	80.4	1405	1	100.0	60
06/13/19	9:00 a	70.4	70.7	69.8	99	70.1	5.0	WNW	5.00	13.0	WNW	70.4	73.8	73.8	29.785	0.00	0.00	0.000	0.225	82.0	41	56.0	81.4	1405	1	100.0	60
06/13/19	10:00 a	70.8	70.8	70.0	98	70.2	7.0	W	7.00	16.0	WNW	70.8	74.1	74.1	29.788	0.00	0.00	0.000	0.242	82.2	38	54.1	81.3	1404	1	100.0	60
06/13/19	11:00 a	71.4	71.5	70.8	95	69.9	6.0	W	6.00	16.0	W	71.4	74.1	74.1	29.812	0.00	0.00	0.000	0.267	81.9	40	55.2	81.2	1406	1	100.0	60
06/13/19	12:00 p	72.3	72.4	71.3	95	70.8	7.0	W	7.00	18.0	NW	72.3	75.1	75.1	29.817	0.00	0.00	0.000	0.304	82.9	40	56.1	82.6	1404	1	100.0	60
06/13/19	1:00 p	75.1	75.1	72.4	84	69.9	6.0	WSW	6.00	17.0	W	75.1	78.0	78.0	29.810	0.00	0.00	0.000	0.421	83.4	37	54.4	82.8	1405	1	100.0	60
06/13/19	2:00 p	76.8	76.8	75.1	83	71.2	7.0	SSW	7.00	20.0	SSE	76.8	80.1	80.1	29.801	0.00	0.00	0.000	0.492	84.3	41	58.0	84.7	1405	1	100.0	60
06/13/19	3:00 p	77.1	77.5	76.8	79	70.1	7.0	SSW	7.00	19.0	SSE	77.1	80.0	80.0	29.802	0.00	0.00	0.000	0.504	85.4	38	56.9	85.2	1405	1	100.0	60
06/13/19	4:00 p	78.5	78.5	77.0	77	70.7	10.0	SW	10.00	25.0	SW	76.8	81.6	79.9	29.798	0.01	0.00	0.000	0.563	85.4	39	57.6	85.4	1405	1	100.0	60
06/13/19	5:00 p	79.6	79.8	78.5	73	70.2	11.0	SSW	11.00	25.0	WSW	77.7	82.6	80.7	29.784	0.00	0.00	0.000	0.608	87.0	37	57.6	86.7	1405	1	100.0	60
06/13/19	6:00 p	79.8	80.3	79.6	71	69.6	10.0	SSW	10.00	20.0	SW	78.2	82.6	81.0	29.781	0.00	0.00	0.000	0.617	86.5	38	57.9	86.4	1405	1	100.0	60
06/13/19	7:00 p	77.3	79.8	77.3	76	69.1	10.0	SSW	10.00	22.0	SW	75.4	79.9	78.0	29.800	0.00	0.00	0.000	0.513	86.8	38	58.1	86.7	1405	1	100.0	60
06/13/19	8:00 p	75.9	77.3	75.9	75	67.4	10.0	SSW	10.00	26.0	SW	74.0	78.3	76.4	29.824	0.00	0.00	0.000	0.454	83.3	37	54.3	82.6	1405	1	100.0	60
06/13/19	9:00 p	71.5	75.9	71.5	80	65.0	10.0	SW	10.00	24.0	WNW	69.4	72.9	70.8	29.862	0.00	0.00	0.000	0.271	84.3	39	56.6	84.3	1405	1	100.0	60
06/13/19	10:00 p	67.1	71.5	67.1	87	63.1	5.0	SSW	5.00	14.0	SSW	67.1	68.5	68.5	29.875	0.01	0.00	0.000	0.087	84.0	39	56.4	84.1	1405	1	100.0	60
06/13/19	11:00 p	66.2	67.1	66.2	87	62.2	6.0	SW	6.00	15.0	SW	66.2	67.4	67.4	29.886	0.00	0.00	0.000	0.050	83.6	40	56.7	83.7	1405	1	100.0	60
06/14/19	12:00 a	65.9	66.2	65.9	89	62.6	5.0	SW	5.00	12.0	SW	65.9	67.1	67.1	29.893	0.00	0.00	0.000	0.038	81.1	38	53.1	79.9	1405	1	100.0	60
FRIDAY			Temp	Hi	Low	Out	Dew	Wind	Wind	Wind	Hi	Hi	Wind	Heat	THW			Rain	Heat	Cool	In 	In	In 	In 	Wind	Wind	ISS 	Arc.
Date		Time	Out	Temp	Temp	Hum	Pt.	Speed	Dir	Run	Speed	Dir	Chill	Index	Index	Bar  	Rain	Rate	D-D 	D-D 	Temp	Hum	Dew	Heat	Samp	Tx 	Recept	Int.
06/14/19	1:00 a	66.5	66.5	65.8	90	63.5	6.0	SSW	6.00	18.0	WNW	66.5	67.9	67.9	29.917	0.00	0.00	0.000	0.063	81.5	39	54.2	80.5	1402	1	100.0	60
06/14/19	2:00 a	65.8	66.5	65.8	81	59.8	6.0	WNW	6.00	14.0	W	65.8	66.7	66.7	29.926	0.00	0.00	0.000	0.033	81.3	40	54.7	80.4	1405	1	100.0	60
06/14/19	3:00 a	64.7	65.8	64.7	82	59.1	5.0	W	5.00	12.0	WNW	64.7	65.4	65.4	29.940	0.00	0.00	0.013	0.000	81.0	41	55.1	80.1	1405	1	100.0	60
06/14/19	4:00 a	62.7	64.7	62.7	85	58.1	5.0	W	5.00	13.0	WNW	62.7	63.1	63.1	29.963	0.00	0.00	0.096	0.000	80.4	41	54.5	79.5	1405	1	100.0	60
06/14/19	5:00 a	61.2	62.7	61.2	83	56.0	4.0	W	4.00	12.0	WNW	61.2	61.3	61.3	29.981	0.00	0.00	0.158	0.000	79.9	42	54.8	79.2	1405	1	100.0	60
06/14/19	6:00 a	59.7	61.2	59.6	82	54.2	5.0	W	5.00	13.0	WSW	59.6	59.7	59.6	29.994	0.00	0.00	0.221	0.000	79.4	42	54.3	78.7	1405	1	100.0	60
06/14/19	7:00 a	61.7	61.7	59.6	77	54.4	5.0	WSW	5.00	15.0	W	61.7	61.6	61.6	30.008	0.00	0.00	0.137	0.000	79.4	43	55.0	78.8	1405	1	100.0	60
06/14/19	8:00 a	66.0	66.0	61.7	65	53.9	7.0	W	7.00	19.0	W	66.0	65.8	65.8	30.030	0.00	0.00	0.000	0.042	79.6	42	54.5	78.9	1405	1	100.0	60
06/14/19	9:00 a	67.6	67.6	66.0	56	51.3	11.0	WNW	11.00	22.0	W	65.0	66.9	64.3	30.056	0.00	0.00	0.000	0.108	79.5	38	51.7	78.4	1405	1	100.0	60
06/14/19	10:00 a	70.1	70.1	67.6	52	51.7	11.0	WNW	11.00	22.0	NW	67.5	68.6	66.0	30.077	0.00	0.00	0.000	0.212	80.2	37	51.6	78.9	1405	1	100.0	60
06/14/19	11:00 a	71.2	71.2	70.1	50	51.6	11.0	WNW	11.00	22.0	WNW	68.6	69.9	67.3	30.094	0.00	0.00	0.000	0.258	81.0	36	51.5	79.6	1405	1	100.0	60
06/14/19	12:00 p	72.2	72.2	71.2	51	53.1	11.0	NW	11.00	23.0	NNW	69.6	71.5	68.9	30.095	0.00	0.00	0.000	0.300	81.7	35	51.4	80.3	1404	1	100.0	60
06/14/19	1:00 p	73.3	73.3	72.2	51	54.1	11.0	WNW	11.00	23.0	NW	70.8	73.0	70.5	30.098	0.00	0.00	0.000	0.346	82.5	35	52.1	81.3	1405	1	100.0	60
06/14/19	2:00 p	74.6	74.6	73.3	54	56.9	10.0	WNW	10.00	18.0	NNW	72.6	74.9	72.9	30.097	0.00	0.00	0.000	0.400	82.8	34	51.6	81.4	1405	1	100.0	60
06/14/19	3:00 p	75.4	75.4	74.6	45	52.6	11.0	NW	11.00	20.0	WSW	73.0	75.1	72.7	30.101	0.00	0.00	0.000	0.433	84.3	33	52.1	83.2	1406	1	100.0	60
06/14/19	4:00 p	76.6	76.6	75.4	42	51.8	10.0	NNW	10.00	19.0	NW	74.7	75.9	74.0	30.093	0.00	0.00	0.000	0.483	84.5	31	50.5	83.0	1404	1	100.0	60
06/14/19	5:00 p	79.0	79.0	76.6	42	53.9	7.0	W	7.00	17.0	NNW	79.0	78.4	78.4	30.099	0.00	0.00	0.000	0.583	86.5	36	56.4	86.0	1405	1	100.0	60
06/14/19	6:00 p	79.6	79.6	79.0	40	53.1	6.0	NNW	6.00	15.0	NW	79.6	78.7	78.7	30.095	0.00	0.00	0.000	0.608	85.6	30	50.6	83.9	1405	1	100.0	60
06/14/19	7:00 p	79.3	79.6	79.2	41	53.6	5.0	WNW	5.00	16.0	NNW	79.3	78.5	78.5	30.101	0.00	0.00	0.000	0.596	86.2	31	52.0	84.7	1405	1	100.0	60
06/14/19	8:00 p	78.1	79.4	78.1	43	53.8	4.0	WSW	4.00	10.0	SSW	78.1	77.5	77.5	30.123	0.00	0.00	0.000	0.546	84.2	32	51.1	82.9	1405	1	100.0	60
06/14/19	9:00 p	73.9	78.1	73.9	52	55.2	4.0	WSW	4.00	5.0	WSW	73.9	73.8	73.8	30.134	0.00	0.00	0.000	0.371	84.1	34	52.7	83.2	1405	1	100.0	60
06/14/19	10:00 p	69.5	73.9	69.5	60	55.0	4.0	WSW	4.00	5.0	WSW	69.5	68.8	68.8	30.156	0.00	0.00	0.000	0.188	83.2	36	53.5	82.3	1405	1	100.0	60
06/14/19	11:00 p	66.2	69.5	66.2	66	54.5	4.0	WSW	4.00	5.0	WSW	66.2	66.1	66.1	30.173	0.00	0.00	0.000	0.050	82.3	37	53.4	81.3	1405	1	100.0	60
06/15/19	12:00 a	63.9	66.2	63.9	73	55.1	4.0	WSW	4.00	5.0	WSW	63.9	63.9	63.9	30.171	0.00	0.00	0.046	0.000	82.1	37	53.2	81.1	1405	1	100.0	60
SATURDAY		Temp	Hi	Low	Out	Dew	Wind	Wind	Wind	Hi	Hi	Wind	Heat	THW			Rain	Heat	Cool	In 	In	In 	In 	Wind	Wind	ISS 	Arc.
Date		Time	Out	Temp	Temp	Hum	Pt.	Speed	Dir	Run	Speed	Dir	Chill	Index	Index	Bar  	Rain	Rate	D-D 	D-D 	Temp	Hum	Dew	Heat	Samp	Tx 	Recept	Int.
06/15/19	1:00 a	61.7	63.9	61.7	79	55.1	0.0	WSW	0.00	6.0	WSW	61.7	61.8	61.8	30.172	0.00	0.00	0.137	0.000	81.5	38	53.4	80.4	1404	1	100.0	60
06/15/19	2:00 a	59.9	61.7	59.9	82	54.4	0.0	WSW	0.00	5.0	WSW	59.9	59.9	59.9	30.163	0.00	0.00	0.212	0.000	80.8	38	52.8	79.6	1405	1	100.0	60
06/15/19	3:00 a	58.2	59.9	58.2	85	53.7	0.0	WSW	0.00	6.0	WSW	58.2	58.1	58.1	30.159	0.00	0.00	0.283	0.000	80.1	39	52.9	79.0	1404	1	100.0	60
06/15/19	4:00 a	56.8	58.2	56.8	88	53.3	4.0	WSW	4.00	6.0	WSW	56.8	56.8	56.8	30.166	0.00	0.00	0.342	0.000	79.3	39	52.2	78.4	1405	1	100.0	60
06/15/19	5:00 a	56.0	56.8	56.0	89	52.8	0.0	WSW	0.00	5.0	WSW	56.0	56.1	56.1	30.176	0.00	0.00	0.375	0.000	78.6	40	52.3	77.8	1405	1	100.0	60
06/15/19	6:00 a	55.3	56.0	55.3	90	52.4	0.0	WSW	0.00	5.0	WSW	55.3	55.4	55.4	30.187	0.00	0.00	0.404	0.000	78.2	41	52.6	77.4	1405	1	100.0	60
06/15/19	7:00 a	58.2	58.2	55.2	93	56.2	0.0	SSE	0.00	7.0	WSW	58.2	58.4	58.4	30.196	0.00	0.00	0.283	0.000	77.4	42	52.5	76.7	1405	1	100.0	60
06/15/19	8:00 a	63.9	63.9	58.2	82	58.3	4.0	SSW	4.00	10.0	SW	63.9	64.4	64.4	30.212	0.00	0.00	0.046	0.000	77.0	43	52.8	76.4	1405	1	100.0	60
06/15/19	9:00 a	68.7	68.7	63.9	77	61.2	4.0	SW	4.00	10.0	WSW	68.7	69.9	69.9	30.220	0.00	0.00	0.000	0.154	77.5	44	53.9	77.0	1405	1	100.0	60
06/15/19	10:00 a	72.7	72.7	68.7	69	61.9	5.0	SW	5.00	12.0	WSW	72.7	73.6	73.6	30.227	0.00	0.00	0.000	0.321	78.3	45	55.2	77.9	1405	1	100.0	60
06/15/19	11:00 a	78.0	78.0	72.7	54	60.0	6.0	SW	6.00	20.0	SW	78.0	78.4	78.4	30.208	0.00	0.00	0.000	0.542	80.5	40	54.0	79.5	1405	1	100.0	60
06/15/19	12:00 p	80.4	80.4	78.0	52	61.2	7.0	S	7.00	18.0	SSE	80.4	80.8	80.8	30.186	0.00	0.00	0.000	0.642	82.4	41	56.3	82.0	1405	1	100.0	60
06/15/19	1:00 p	83.4	83.4	80.4	46	60.4	10.0	S	10.00	22.0	S	82.2	84.3	83.1	30.169	0.00	0.00	0.000	0.767	84.0	37	54.9	83.7	1405	1	100.0	60
06/15/19	2:00 p	84.8	84.8	83.4	41	58.5	7.0	SW	7.00	21.0	SW	84.8	85.1	85.1	30.149	0.00	0.00	0.000	0.825	85.2	40	58.2	85.3	1404	1	100.0	60
06/15/19	3:00 p	85.2	85.2	84.8	41	58.8	7.0	SW	7.00	20.0	SW	85.2	85.5	85.5	30.116	0.00	0.00	0.000	0.842	87.3	41	60.7	87.9	1405	1	100.0	60
06/15/19	4:00 p	85.6	85.6	85.2	38	57.1	10.0	SW	10.00	22.0	SW	84.8	85.4	84.6	30.092	0.00	0.00	0.000	0.858	86.7	38	58.1	86.6	1405	1	100.0	60
06/15/19	5:00 p	87.0	87.0	85.6	40	59.8	7.0	S	7.00	21.0	SSE	87.0	87.4	87.4	30.083	0.00	0.00	0.000	0.917	89.6	37	59.9	89.8	1405	1	100.0	60
06/15/19	6:00 p	85.8	87.0	85.8	40	58.7	10.0	SSW	10.00	22.0	SW	85.0	86.0	85.2	30.090	0.00	0.00	0.000	0.867	88.0	35	56.9	86.8	1405	1	100.0	60
06/15/19	7:00 p	83.8	85.8	83.8	46	60.8	7.0	SSW	7.00	19.0	SW	83.8	84.9	84.9	30.084	0.00	0.00	0.000	0.783	89.3	36	58.8	89.1	1405	1	100.0	60
06/15/19	8:00 p	81.0	83.8	81.0	52	61.7	6.0	S	6.00	16.0	S	81.0	81.5	81.5	30.069	0.00	0.00	0.000	0.667	85.4	33	53.0	84.2	1405	1	100.0	60
06/15/19	9:00 p	77.6	81.0	77.6	63	64.0	6.0	S	6.00	15.0	SSE	77.6	78.8	78.8	30.078	0.00	0.00	0.000	0.525	85.8	35	55.0	85.1	1405	1	100.0	60
06/15/19	10:00 p	74.7	77.6	74.7	69	63.9	6.0	S	6.00	15.0	SSE	74.7	76.3	76.3	30.077	0.00	0.00	0.000	0.404	83.8	33	51.6	82.6	1405	1	100.0	60
06/15/19	11:00 p	72.5	74.7	72.5	75	64.1	6.0	S	6.00	16.0	SSE	72.5	73.8	73.8	30.077	0.00	0.00	0.000	0.313	83.7	35	53.1	82.8	1405	1	100.0	60
06/16/19	12:00 a	70.9	72.5	70.9	79	64.1	6.0	S	6.00	15.0	SSE	70.9	72.1	72.1	30.069	0.00	0.00	0.000	0.246	83.6	36	53.8	82.9	1406	1	100.0	60
SUNDAY			Temp	Hi	Low	Out	Dew	Wind	Wind	Wind	Hi	Hi	Wind	Heat	THW			Rain	Heat	Cool	In 	In	In 	In 	Wind	Wind	ISS 	Arc.
Date		Time	Out	Temp	Temp	Hum	Pt.	Speed	Dir	Run	Speed	Dir	Chill	Index	Index	Bar  	Rain	Rate	D-D 	D-D 	Temp	Hum	Dew	Heat	Samp	Tx 	Recept	Int.
06/16/19	1:00 a	69.4	70.9	69.4	82	63.7	5.0	SSW	5.00	15.0	SE	69.4	70.9	70.9	30.068	0.00	0.00	0.000	0.183	81.9	36	52.3	80.7	1403	1	100.0	60
06/16/19	2:00 a	68.2	69.4	68.2	84	63.2	5.0	SSW	5.00	14.0	SSE	68.2	69.7	69.7	30.052	0.00	0.00	0.000	0.133	82.1	37	53.2	81.1	1404	1	100.0	60
06/16/19	3:00 a	67.6	68.2	67.6	85	62.9	5.0	SSW	5.00	13.0	W	67.6	69.0	69.0	30.037	0.00	0.00	0.000	0.108	81.8	38	53.7	80.8	1405	1	100.0	60
06/16/19	4:00 a	67.0	67.6	67.0	86	62.7	5.0	SSW	5.00	15.0	S	67.0	68.3	68.3	30.019	0.00	0.00	0.000	0.083	81.5	38	53.4	80.4	1405	1	100.0	60
06/16/19	5:00 a	65.9	67.0	65.9	88	62.2	5.0	SSW	5.00	10.0	SW	65.9	67.1	67.1	30.010	0.00	0.00	0.000	0.038	81.1	39	53.8	80.0	1405	1	100.0	60
06/16/19	6:00 a	65.0	65.9	65.0	90	62.0	4.0	SSW	4.00	11.0	WSW	65.0	66.0	66.0	30.016	0.00	0.00	0.000	0.000	80.8	40	54.2	79.8	1405	1	100.0	60
06/16/19	7:00 a	66.0	66.0	64.8	94	64.2	4.0	SSW	4.00	10.0	S	66.0	67.4	67.4	30.026	0.00	0.00	0.000	0.042	80.7	42	55.5	79.9	1405	1	100.0	60
06/16/19	8:00 a	72.8	72.8	66.0	85	68.0	6.0	SW	6.00	15.0	SW	72.8	74.8	74.8	30.022	0.00	0.00	0.000	0.325	80.5	46	57.8	80.2	1405	1	100.0	60
06/16/19	9:00 a	77.2	77.2	72.8	77	69.4	7.0	SSW	7.00	19.0	WSW	77.2	79.9	79.9	30.026	0.00	0.00	0.000	0.508	81.9	54	63.6	83.1	1405	1	100.0	60
06/16/19	10:00 a	81.4	81.4	77.2	71	71.1	10.0	SW	10.00	21.0	SW	79.9	85.4	83.9	30.010	0.00	0.00	0.000	0.683	84.3	53	65.3	86.6	1405	1	100.0	60
06/16/19	11:00 a	85.5	85.5	81.4	63	71.5	10.0	SSW	10.00	22.0	SW	84.7	91.5	90.7	30.001	0.00	0.00	0.000	0.854	85.8	46	62.6	87.1	1405	1	100.0	60
06/16/19	12:00 p	87.5	87.5	85.5	59	71.4	10.0	SW	10.00	27.0	SW	87.0	93.9	93.4	29.985	0.00	0.00	0.000	0.938	83.7	41	57.5	84.0	1405	1	100.0	60
06/16/19	1:00 p	89.0	89.0	87.5	58	72.3	11.0	SW	11.00	22.0	SW	88.6	96.5	96.1	29.970	0.00	0.00	0.000	1.000	85.9	43	60.8	86.6	1405	1	100.0	60
06/16/19	2:00 p	90.2	90.2	89.0	59	73.9	11.0	SSW	11.00	24.0	SW	90.1	99.8	99.7	29.949	0.00	0.00	0.000	1.050	85.3	39	57.5	85.3	1405	1	100.0	60
06/16/19	3:00 p	91.1	91.1	90.3	57	73.7	11.0	SSW	11.00	22.0	SW	91.1	101.0	101.0	29.945	0.00	0.00	0.000	1.087	87.6	40	60.3	87.8	1405	1	100.0	60
06/16/19	4:00 p	91.6	91.6	91.1	55	73.1	11.0	SSW	11.00	22.0	SW	91.6	101.1	101.1	29.923	0.00	0.00	0.000	1.108	87.4	39	59.4	87.4	1405	1	100.0	60
06/16/19	5:00 p	92.3	92.4	91.5	54	73.2	11.0	SSW	11.00	24.0	WSW	92.3	102.2	102.2	29.894	0.00	0.00	0.000	1.138	89.3	37	59.6	89.4	1404	1	100.0	60
06/16/19	6:00 p	91.3	92.4	91.3	55	72.9	11.0	SSW	11.00	24.0	SSE	91.3	100.4	100.4	29.912	0.00	0.00	0.000	1.096	88.9	37	59.3	88.8	1405	1	100.0	60
06/16/19	7:00 p	89.9	91.3	89.9	56	72.1	10.0	SW	10.00	25.0	SW	89.9	97.7	97.7	29.909	0.00	0.00	0.000	1.038	88.7	36	58.3	88.2	1405	1	100.0	60
06/16/19	8:00 p	87.3	89.9	87.3	59	71.2	6.0	SW	6.00	18.0	WSW	87.3	93.6	93.6	29.925	0.00	0.00	0.000	0.929	86.6	35	55.7	85.8	1405	1	100.0	60
06/16/19	9:00 p	84.0	87.3	84.0	64	70.5	5.0	SSW	5.00	14.0	WSW	84.0	88.9	88.9	29.914	0.00	0.00	0.000	0.792	88.5	37	58.9	88.2	1405	1	100.0	60
06/16/19	10:00 p	81.8	84.0	81.7	67	69.8	5.0	SSW	5.00	13.0	WSW	81.8	85.3	85.3	29.922	0.00	0.00	0.000	0.700	85.4	35	54.6	84.6	1405	1	100.0	60
06/16/19	11:00 p	80.1	81.8	80.1	70	69.4	6.0	SW	6.00	15.0	WSW	80.1	82.9	82.9	29.943	0.00	0.00	0.000	0.629	86.4	36	56.3	85.9	1405	1	100.0	60
06/17/19	12:00 a	78.7	80.1	78.7	81	72.4	6.0	SW	6.00	15.0	WSW	78.7	82.5	82.5	29.950	0.00	0.00	0.000	0.571	83.8	36	54.0	83.2	1406	1	100.0	60
MONDAY 			Temp	Hi	Low	Out	Dew	Wind	Wind	Wind	Hi	Hi	Wind	Heat	THW			Rain	Heat	Cool	In 	In	In 	In 	Wind	Wind	ISS 	Arc.
Date		Time	Out	Temp	Temp	Hum	Pt.	Speed	Dir	Run	Speed	Dir	Chill	Index	Index	Bar  	Rain	Rate	D-D 	D-D 	Temp	Hum	Dew	Heat	Samp	Tx 	Recept	Int.
06/17/19	1:00 a	77.7	78.7	77.7	85	72.8	6.0	SW	6.00	16.0	SW	77.7	81.6	81.6	29.955	0.00	0.00	0.000	0.529	84.7	37	55.5	84.3	1403	1	100.0	60
06/17/19	2:00 a	76.5	77.7	76.5	87	72.3	6.0	SW	6.00	16.0	S	76.5	80.0	80.0	29.955	0.00	0.00	0.000	0.479	84.8	38	56.4	84.6	1405	1	100.0	60
06/17/19	3:00 a	75.6	76.5	75.6	88	71.8	6.0	SW	6.00	14.0	WSW	75.6	78.9	78.9	29.950	0.00	0.00	0.000	0.442	84.7	38	56.3	84.5	1405	1	100.0	60
06/17/19	4:00 a	74.7	75.7	74.7	89	71.2	5.0	SSW	5.00	14.0	SW	74.7	77.7	77.7	29.941	0.00	0.00	0.000	0.404	83.1	38	54.9	82.5	1405	1	100.0	60
06/17/19	5:00 a	73.9	74.7	73.9	90	70.8	6.0	SSW	6.00	14.0	SSE	73.9	76.3	76.3	29.955	0.00	0.00	0.000	0.371	83.4	39	55.8	83.2	1404	1	100.0	60
06/17/19	6:00 a	73.3	73.9	73.3	91	70.5	6.0	SSW	6.00	15.0	SW	73.3	75.8	75.8	29.972	0.00	0.00	0.000	0.346	83.7	39	56.1	83.6	1405	1	100.0	60
06/17/19	7:00 a	74.6	74.6	73.3	90	71.5	7.0	SSW	7.00	16.0	SW	74.6	77.6	77.6	29.981	0.00	0.00	0.000	0.400	81.8	38	53.7	80.8	1406	1	100.0	60
06/17/19	8:00 a	78.3	78.3	74.6	83	72.7	7.0	SW	7.00	25.0	SW	78.3	82.3	82.3	29.996	0.00	0.00	0.000	0.554	83.1	39	55.6	82.7	1404	1	100.0	60
06/17/19	9:00 a	82.7	82.7	78.3	77	74.8	7.0	SW	7.00	20.0	SW	82.7	89.9	89.9	29.998	0.00	0.00	0.000	0.737	83.3	37	54.3	82.6	1405	1	100.0	60
06/17/19	10:00 a	86.0	86.0	82.7	74	76.7	7.0	SW	7.00	18.0	SW	86.0	96.7	96.7	29.995	0.00	0.00	0.000	0.875	84.4	39	56.7	84.4	1405	1	100.0	60
06/17/19	11:00 a	90.2	90.2	86.0	68	78.2	7.0	SSW	7.00	17.0	SSW	90.2	105.2	105.2	29.995	0.00	0.00	0.000	1.050	85.7	36	55.7	85.1	1405	1	100.0	60
06/17/19	12:00 p	92.3	92.3	90.2	65	78.8	7.0	SW	7.00	20.0	SW	92.3	109.5	109.5	29.994	0.00	0.00	0.000	1.138	87.7	41	61.1	88.2	1405	1	100.0	60
06/17/19	1:00 p	93.7	93.8	92.3	62	78.7	7.0	SW	7.00	21.0	SW	93.7	111.5	111.5	29.989	0.00	0.00	0.000	1.196	87.7	36	57.4	86.9	1405	1	100.0	60
06/17/19	2:00 p	95.1	95.1	93.8	61	79.5	6.0	SW	6.00	17.0	SW	95.1	115.1	115.1	29.975	0.00	0.00	0.000	1.254	90.3	39	62.0	91.4	1405	1	100.0	60
06/17/19	3:00 p	95.4	95.4	95.1	59	78.8	7.0	SSW	7.00	17.0	W	95.4	114.3	114.3	29.969	0.00	0.00	0.000	1.267	90.0	34	57.9	89.7	1405	1	100.0	60
06/17/19	4:00 p	96.2	96.3	95.4	59	79.5	7.0	SSW	7.00	19.0	SSW	96.2	116.9	116.9	29.956	0.00	0.00	0.000	1.300	92.3	40	64.5	95.0	1405	1	100.0	60
06/17/19	5:00 p	96.3	96.3	96.3	56	78.0	7.0	SW	7.00	18.0	WSW	96.3	114.7	114.7	29.936	0.00	0.00	0.000	1.304	91.7	34	59.3	92.0	1405	1	100.0	60
06/17/19	6:00 p	95.6	96.3	95.6	56	77.4	7.0	SW	7.00	16.0	SW	95.6	112.5	112.5	29.931	0.00	0.00	0.000	1.275	92.9	38	63.6	95.2	1405	1	100.0	60
06/17/19	7:00 p	90.6	95.6	90.6	60	74.8	6.0	NNW	6.00	16.0	SW	90.6	101.3	101.3	29.960	0.00	0.00	0.000	1.067	91.6	32	57.6	91.4	1404	1	100.0	60
06/17/19	8:00 p	84.1	90.5	84.1	64	70.6	6.0	WNW	6.00	25.0	WSW	84.1	89.1	89.1	29.969	0.00	0.00	0.000	0.796	91.5	37	61.6	92.6	1406	1	100.0	60
06/17/19	9:00 p	78.3	84.1	78.3	80	71.6	5.0	NE	5.00	13.0	ENE	78.3	81.8	81.8	29.987	0.00	0.00	0.000	0.554	88.8	32	55.1	87.2	1404	1	100.0	60
06/17/19	10:00 p	77.7	78.3	77.7	83	72.1	5.0	S	5.00	17.0	NE	77.7	81.4	81.4	30.006	0.00	0.00	0.000	0.529	89.1	36	58.7	88.8	1405	1	100.0	60
06/17/19	11:00 p	77.2	77.8	77.2	85	72.3	4.0	ESE	4.00	6.0	E	77.2	80.9	80.9	30.000	0.00	0.00	0.000	0.508	86.6	35	55.7	85.8	1405	1	100.0	60
06/18/19	12:00 a	76.5	77.3	76.4	86	72.0	4.0	SSE	4.00	10.0	SSE	76.5	80.0	80.0	29.989	0.00	0.00	0.000	0.479	87.1	36	56.9	86.5	1405	1	100.0	60
TUESDAY			Temp	Hi	Low	Out	Dew	Wind	Wind	Wind	Hi	Hi	Wind	Heat	THW			Rain	Heat	Cool	In 	In	In 	In 	Wind	Wind	ISS 	Arc.
Date		Time	Out	Temp	Temp	Hum	Pt.	Speed	Dir	Run	Speed	Dir	Chill	Index	Index	Bar  	Rain	Rate	D-D 	D-D 	Temp	Hum	Dew	Heat	Samp	Tx 	Recept	Int.
06/18/19	1:00 a	77.0	77.0	76.5	87	72.8	5.0	SSW	5.00	14.0	SW	77.0	80.8	80.8	29.985	0.00	0.00	0.000	0.500	85.0	35	54.3	84.2	1404	1	100.0	60
06/18/19	2:00 a	77.0	77.1	77.0	87	72.8	7.0	SW	7.00	19.0	SW	77.0	80.8	80.8	29.977	0.00	0.00	0.000	0.500	85.6	37	56.3	85.2	1405	1	100.0	60
06/18/19	3:00 a	76.4	77.0	76.4	88	72.6	6.0	SW	6.00	18.0	W	76.4	80.0	80.0	29.968	0.00	0.00	0.000	0.475	85.1	36	55.1	84.5	1405	1	100.0	60
06/18/19	4:00 a	75.3	76.4	75.3	89	71.8	6.0	SW	6.00	14.0	SW	75.3	78.7	78.7	29.963	0.00	0.00	0.000	0.429	84.1	37	55.0	83.8	1405	1	100.0	60
06/18/19	5:00 a	74.8	75.3	74.8	90	71.7	6.0	SW	6.00	19.0	WSW	74.8	78.0	78.0	29.971	0.00	0.00	0.000	0.408	84.4	38	56.0	84.2	1405	1	100.0	60
06/18/19	6:00 a	74.3	74.8	74.3	92	71.8	6.0	SSW	6.00	13.0	SW	74.3	77.2	77.2	29.980	0.00	0.00	0.000	0.388	83.8	37	54.7	83.4	1405	1	100.0	60
06/18/19	7:00 a	75.2	75.2	74.3	94	73.4	6.0	SW	6.00	13.0	SSW	75.2	78.9	78.9	29.979	0.00	0.00	0.000	0.425	84.2	47	61.8	85.6	1405	1	100.0	60
06/18/19	8:00 a	77.9	77.9	75.2	90	74.7	6.0	SW	6.00	17.0	SSE	77.9	82.6	82.6	29.979	0.00	0.00	0.000	0.538	85.2	51	65.0	87.3	1404	1	100.0	60
06/18/19	9:00 a	81.9	81.9	77.9	85	76.9	7.0	SW	7.00	16.0	SW	81.9	90.1	90.1	29.975	0.00	0.00	0.000	0.704	86.7	54	68.1	90.8	1405	1	100.0	60
06/18/19	10:00 a	86.8	86.8	81.9	74	77.5	7.0	SW	7.00	17.0	SSW	86.8	98.7	98.7	29.975	0.00	0.00	0.000	0.908	87.2	43	62.0	88.3	1405	1	100.0	60
06/18/19	11:00 a	89.3	89.4	86.8	68	77.3	7.0	SW	7.00	24.0	SW	89.3	102.2	102.2	29.969	0.00	0.00	0.000	1.013	85.0	40	58.0	85.1	1405	1	100.0	60
06/18/19	12:00 p	91.8	91.8	89.4	63	77.4	7.0	SW	7.00	26.0	SW	91.8	106.6	106.6	29.962	0.00	0.00	0.000	1.117	86.7	39	58.8	86.8	1405	1	100.0	60
06/18/19	1:00 p	92.9	92.9	91.7	62	78.0	7.0	SW	7.00	19.0	SW	92.9	109.0	109.0	29.952	0.00	0.00	0.000	1.163	87.0	40	59.8	87.4	1405	1	100.0	60
06/18/19	2:00 p	92.2	93.1	92.2	64	78.3	6.0	SW	6.00	18.0	SW	92.2	108.5	108.5	29.934	0.00	0.00	0.000	1.133	88.9	38	60.0	89.1	1405	1	100.0	60
06/18/19	3:00 p	94.0	94.0	92.2	60	78.0	7.0	SW	7.00	19.0	SW	94.0	110.7	110.7	29.908	0.00	0.00	0.000	1.208	88.2	38	59.4	87.9	1405	1	100.0	60
06/18/19	4:00 p	91.2	94.0	91.2	65	77.8	6.0	SSW	6.00	16.0	SSE	91.2	106.2	106.2	29.901	0.00	0.00	0.000	1.092	90.6	38	61.5	91.6	1405	1	100.0	60
06/18/19	5:00 p	83.5	91.2	83.5	77	75.5	6.0	SW	6.00	21.0	SW	83.5	92.1	92.1	29.900	0.02	0.06	0.000	0.771	88.2	37	58.6	87.7	1405	1	100.0	60
06/18/19	6:00 p	78.5	83.5	78.5	87	74.3	4.0	W	4.00	6.0	W	78.5	83.2	83.2	29.896	0.00	0.00	0.000	0.563	89.2	38	60.3	89.6	1405	1	100.0	60
06/18/19	7:00 p	77.0	78.5	77.0	88	73.2	5.0	WNW	5.00	13.0	W	77.0	80.8	80.8	29.894	0.00	0.00	0.000	0.500	86.5	36	56.4	86.0	1405	1	100.0	60
06/18/19	8:00 p	77.1	77.2	76.9	87	72.9	4.0	SSW	4.00	7.0	SSW	77.1	80.9	80.9	29.911	0.00	0.00	0.000	0.504	87.3	37	57.8	86.9	1405	1	100.0	60
06/18/19	9:00 p	76.5	77.1	76.5	92	74.0	4.0	SSW	4.00	10.0	WSW	76.5	80.5	80.5	29.928	0.01	0.00	0.000	0.479	84.8	36	54.9	84.2	1405	1	100.0	60
06/18/19	10:00 p	73.9	76.5	73.9	95	72.4	5.0	SSW	5.00	21.0	SW	73.9	76.9	76.9	29.928	0.55	5.43	0.000	0.371	85.4	37	56.2	85.0	1405	1	100.0	60
06/18/19	11:00 p	73.0	73.9	72.8	98	72.4	4.0	NW	4.00	7.0	NW	73.0	76.3	76.3	29.937	0.07	0.16	0.000	0.333	83.4	34	52.1	82.2	1405	1	100.0	60
06/19/19	12:00 a	73.2	73.3	73.0	98	72.6	0.0	N	0.00	6.0	N	73.2	76.5	76.5	29.927	0.00	0.00	0.000	0.342	83.6	36	53.8	82.9	1404	1	100.0	60
WEDNESDAY		Temp	Hi	Low	Out	Dew	Wind	Wind	Wind	Hi	Hi	Wind	Heat	THW			Rain	Heat	Cool	In 	In	In 	In 	Wind	Wind	ISS 	Arc.
Date		Time	Out	Temp	Temp	Hum	Pt.	Speed	Dir	Run	Speed	Dir	Chill	Index	Index	Bar  	Rain	Rate	D-D 	D-D 	Temp	Hum	Dew	Heat	Samp	Tx 	Recept	Int.
06/19/19	1:00 a	73.1	73.3	73.1	99	72.8	4.0	W	4.00	6.0	WNW	73.1	76.5	76.5	29.923	0.00	0.00	0.000	0.337	83.9	37	54.8	83.5	1403	1	100.0	60
06/19/19	2:00 a	72.6	73.1	72.6	99	72.3	4.0	SW	4.00	6.0	SW	72.6	76.0	76.0	29.893	0.00	0.00	0.000	0.317	83.8	38	55.5	83.6	1405	1	100.0	60
06/19/19	3:00 a	72.2	72.6	72.2	99	71.9	4.0	SW	4.00	6.0	SW	72.2	75.6	75.6	29.865	0.00	0.00	0.000	0.300	83.6	38	55.3	83.3	1405	1	100.0	60
06/19/19	4:00 a	72.3	72.3	72.2	100	72.3	0.0	SW	0.00	6.0	SW	72.3	75.9	75.9	29.851	0.00	0.00	0.000	0.304	82.9	37	54.0	82.0	1405	1	100.0	60
06/19/19	5:00 a	72.6	72.6	72.3	100	72.6	4.0	SW	4.00	7.0	SW	72.6	76.2	76.2	29.845	0.00	0.00	0.000	0.317	82.1	38	54.0	81.2	1405	1	100.0	60
06/19/19	6:00 a	72.9	73.0	72.6	100	72.9	4.0	S	4.00	6.0	SW	72.9	76.5	76.5	29.836	0.00	0.00	0.000	0.329	82.7	38	54.5	82.0	1405	1	100.0	60
06/19/19	7:00 a	73.9	73.9	72.9	100	73.9	4.0	S	4.00	6.0	S	73.9	77.5	77.5	29.845	0.00	0.00	0.000	0.371	82.9	39	55.4	82.4	1405	1	100.0	60
06/19/19	8:00 a	76.6	76.6	73.9	100	76.6	5.0	S	5.00	12.0	S	76.6	81.4	81.4	29.849	0.00	0.00	0.000	0.483	81.6	38	53.5	80.6	1405	1	100.0	60
06/19/19	9:00 a	77.1	77.2	76.6	100	77.1	5.0	SSW	5.00	13.0	SW	77.1	82.4	82.4	29.857	0.00	0.00	0.000	0.504	82.8	39	55.3	82.3	1405	1	100.0	60
06/19/19	10:00 a	78.4	78.4	77.1	100	78.4	5.0	SW	5.00	13.0	WSW	78.4	85.4	85.4	29.840	0.00	0.00	0.000	0.558	82.6	37	53.7	81.7	1404	1	100.0	60
06/19/19	11:00 a	78.4	78.5	78.3	100	78.4	6.0	SW	6.00	13.0	SW	78.4	85.4	85.4	29.834	0.00	0.00	0.000	0.558	83.6	39	56.0	83.5	1405	1	100.0	60
06/19/19	12:00 p	79.1	79.1	78.4	98	78.5	5.0	SSW	5.00	13.0	SSW	79.1	86.7	86.7	29.822	0.00	0.00	0.000	0.587	85.5	39	57.7	85.5	1405	1	100.0	60
06/19/19	1:00 p	81.7	81.7	79.1	93	79.5	5.0	SSW	5.00	12.0	WSW	81.7	92.3	92.3	29.805	0.00	0.00	0.000	0.696	84.5	38	56.1	84.3	1405	1	100.0	60
06/19/19	2:00 p	86.0	86.0	81.7	83	80.2	5.0	SW	5.00	12.0	WSW	86.0	100.2	100.2	29.783	0.00	0.00	0.000	0.875	86.7	40	59.5	87.0	1405	1	100.0	60
06/19/19	3:00 p	88.0	88.0	86.0	72	77.8	5.0	SW	5.00	12.0	SSE	88.0	100.0	100.0	29.755	0.00	0.00	0.000	0.958	86.2	36	56.1	85.7	1405	1	100.0	60
06/19/19	4:00 p	88.0	88.0	88.0	75	79.1	6.0	SSE	6.00	15.0	S	88.0	101.4	101.4	29.741	0.00	0.00	0.000	0.958	88.6	40	61.2	89.2	1405	1	100.0	60
06/19/19	5:00 p	88.1	88.4	88.1	75	79.2	6.0	SW	6.00	15.0	SSE	88.1	101.8	101.8	29.726	0.00	0.00	0.000	0.962	87.3	38	58.6	87.1	1405	1	100.0	60
06/19/19	6:00 p	84.7	88.1	84.7	83	79.0	6.0	SW	6.00	17.0	SSE	84.7	97.0	97.0	29.717	0.08	2.47	0.000	0.821	87.8	35	56.7	86.7	1405	1	100.0	60
06/19/19	7:00 p	78.4	84.6	78.4	92	75.9	4.0	SSE	4.00	10.0	SSE	78.4	83.9	83.9	29.740	0.05	24.00	0.000	0.558	86.2	39	58.3	86.2	1405	1	100.0	60
06/19/19	8:00 p	77.9	78.4	77.9	95	76.4	5.0	SSE	5.00	11.0	S	77.9	83.2	83.2	29.736	0.00	0.00	0.000	0.538	87.5	39	59.5	87.5	1405	1	100.0	60
06/19/19	9:00 p	76.6	77.9	76.6	96	75.4	5.0	SSE	5.00	14.0	SSE	76.6	81.0	81.0	29.737	0.00	0.00	0.000	0.483	84.7	37	55.5	84.3	1405	1	100.0	60
06/19/19	10:00 p	74.7	76.6	74.7	97	73.8	6.0	S	6.00	17.0	SSE	74.7	78.3	78.3	29.733	0.00	0.00	0.000	0.404	85.7	38	57.2	85.5	1405	1	100.0	60
06/19/19	11:00 p	74.0	74.7	74.0	97	73.1	5.0	SSW	5.00	15.0	SSE	74.0	77.2	77.2	29.732	0.00	0.00	0.000	0.375	85.6	39	57.8	85.6	1405	1	100.0	60
THURSDAY		Temp	Hi	Low	Out	Dew	Wind	Wind	Wind	Hi	Hi	Wind	Heat	THW			Rain	Heat	Cool	In 	In	In 	In 	Wind	Wind	ISS 	Arc.
Date		Time	Out	Temp	Temp	Hum	Pt.	Speed	Dir	Run	Speed	Dir	Chill	Index	Index	Bar  	Rain	Rate	D-D 	D-D 	Temp	Hum	Dew	Heat	Samp	Tx 	Recept	Int.
06/20/19	12:00 a	73.7	74.1	73.7	98	73.1	6.0	SSW	6.00	17.0	SSE	73.7	77.0	77.0	29.724	0.00	0.00	0.000	0.362	83.7	38	55.4	83.4	1406	1	100.0	60
06/20/19	1:00 a	74.0	74.0	73.7	99	73.7	6.0	SSW	6.00	17.0	SSE	74.0	77.5	77.5	29.706	0.00	0.00	0.000	0.375	84.3	39	56.6	84.3	1402	1	100.0	60
06/20/19	2:00 a	73.9	74.1	73.9	99	73.6	5.0	S	5.00	13.0	S	73.9	77.4	77.4	29.697	0.00	0.00	0.000	0.371	84.4	40	57.4	84.6	1405	1	100.0	60
06/20/19	3:00 a	73.7	73.9	73.7	99	73.4	5.0	S	5.00	12.0	S	73.7	77.2	77.2	29.686	0.00	0.00	0.000	0.362	82.3	38	54.2	81.4	1405	1	100.0	60
06/20/19	4:00 a	73.8	73.8	73.7	99	73.5	5.0	S	5.00	12.0	SSE	73.8	77.3	77.3	29.682	0.00	0.00	0.000	0.367	83.0	39	55.5	82.5	1405	1	100.0	60
06/20/19	5:00 a	73.6	73.8	73.6	99	73.3	5.0	SW	5.00	13.0	WSW	73.6	77.1	77.1	29.680	0.00	0.00	0.000	0.358	83.2	40	56.4	83.0	1405	1	100.0	60
06/20/19	6:00 a	73.8	73.8	73.6	100	73.8	5.0	SSW	5.00	13.0	S	73.8	77.4	77.4	29.684	0.00	0.00	0.000	0.367	83.2	41	57.1	83.2	1405	1	100.0	60
06/20/19	7:00 a	75.4	75.4	73.7	100	75.4	6.0	SSW	6.00	17.0	SW	75.4	79.4	79.4	29.683	0.00	0.00	0.000	0.433	81.8	39	54.4	80.9	1405	1	100.0	60
06/20/19	8:00 a	77.5	77.5	75.4	99	77.2	7.0	SSW	7.00	19.0	SW	77.5	83.1	83.1	29.686	0.00	0.00	0.000	0.521	83.1	41	57.0	83.0	1405	1	100.0	60
 
			Temp	Hi	Low	Out	Dew	Wind	Wind	Wind	Hi	Hi	Wind	Heat	THW			Rain	Heat	Cool	In 	In	In 	In 	Wind	Wind	ISS 	Arc.
Date		Time	Out	Temp	Temp	Hum	Pt.	Speed	Dir	Run	Speed	Dir	Chill	Index	Index	Bar  	Rain	Rate	D-D 	D-D 	Temp	Hum	Dew	Heat	Samp	Tx 	Recept	Int.
-----------------------------------------------------------------------------------------------------------------------------------------------------------------------------------